Time,TemperatureF,DewpointF,PressureIn,WindDirection,WindDirectionDegrees,WindSpeedMPH,WindSpeedGustMPH,Humidity,HourlyPrecipIn,Conditions,Clouds,dailyrainin,SoftwareType,DateUTC
2013-05-12 00:05:00,61.2,60.1,29.56,South,187,0.0,7.0,96,0.00,,,0.09,Wunderground v.1.15,2013-05-12 04:05:00,
2013-05-12 00:06:00,61.2,60.1,29.55,South,187,0.0,7.0,96,0.00,,,0.09,Wunderground v.1.15,2013-05-12 04:06:00,
2013-05-12 00:07:00,61.2,60.1,29.55,South,187,0.0,7.0,96,0.00,,,0.09,Wunderground v.1.15,2013-05-12 04:07:00,
2013-05-12 00:08:00,61.2,60.1,29.55,South,187,0.0,7.0,96,0.00,,,0.09,Wunderground v.1.15,2013-05-12 04:08:00,
2013-05-12 00:09:00,61.2,60.1,29.55,South,187,0.0,7.0,96,0.00,,,0.09,Wunderground v.1.15,2013-05-12 04:09:00,
2013-05-12 00:10:00,61.2,60.1,29.56,South,187,0.0,7.0,96,0.00,,,0.09,Wunderground v.1.15,2013-05-12 04:10:00,
2013-05-12 00:11:00,61.2,60.1,29.56,South,187,0.0,7.0,96,0.00,,,0.09,Wunderground v.1.15,2013-05-12 04:11:00,
2013-05-12 00:14:00,61.2,60.1,29.56,South,189,0.0,7.0,96,0.00,,,0.09,Wunderground v.1.15,2013-05-12 04:14:00,
2013-05-12 00:15:00,61.2,60.1,29.56,South,188,0.0,7.0,96,0.00,,,0.09,Wunderground v.1.15,2013-05-12 04:15:00,
2013-05-12 00:16:00,61.2,60.1,29.56,South,188,1.0,7.0,96,0.00,,,0.09,Wunderground v.1.15,2013-05-12 04:16:00,
2013-05-12 00:20:00,61.2,60.1,29.56,SSW,207,2.0,7.0,96,0.00,,,0.09,Wunderground v.1.15,2013-05-12 04:20:00,
2013-05-12 00:21:00,61.2,60.1,29.56,SSW,207,2.0,7.0,96,0.00,,,0.09,Wunderground v.1.15,2013-05-12 04:21:00,
2013-05-12 00:22:00,61.2,60.1,29.56,SSW,207,2.0,7.0,96,0.00,,,0.09,Wunderground v.1.15,2013-05-12 04:22:00,
2013-05-12 00:24:00,61.2,60.1,29.56,SSW,207,2.0,7.0,96,0.00,,,0.09,Wunderground v.1.15,2013-05-12 04:24:00,
2013-05-12 00:26:00,61.1,60.0,29.56,SSW,207,1.0,7.0,96,0.00,,,0.09,Wunderground v.1.15,2013-05-12 04:26:00,
2013-05-12 00:28:00,61.1,60.0,29.55,SSW,207,1.0,7.0,96,0.00,,,0.09,Wunderground v.1.15,2013-05-12 04:28:00,
2013-05-12 00:29:00,61.2,60.1,29.56,SSW,207,1.0,7.0,96,0.00,,,0.09,Wunderground v.1.15,2013-05-12 04:29:00,
2013-05-12 00:31:00,61.1,60.0,29.55,SSW,207,1.0,7.0,96,0.00,,,0.09,Wunderground v.1.15,2013-05-12 04:31:00,
2013-05-12 00:34:00,61.1,60.0,29.55,SSW,207,0.0,7.0,96,0.00,,,0.09,Wunderground v.1.15,2013-05-12 04:34:00,
2013-05-12 00:35:00,61.1,60.0,29.55,SSW,207,0.0,7.0,96,0.00,,,0.09,Wunderground v.1.15,2013-05-12 04:35:00,
2013-05-12 00:36:00,61.1,60.0,29.55,SSW,207,0.0,7.0,96,0.00,,,0.09,Wunderground v.1.15,2013-05-12 04:36:00,
2013-05-12 00:40:00,61.1,60.0,29.55,SSW,207,0.0,7.0,96,0.00,,,0.09,Wunderground v.1.15,2013-05-12 04:40:00,
2013-05-12 00:41:00,61.1,60.0,29.55,SSW,207,0.0,7.0,96,0.00,,,0.09,Wunderground v.1.15,2013-05-12 04:41:00,
2013-05-12 00:42:00,61.1,60.0,29.55,SSW,207,0.0,7.0,96,0.00,,,0.09,Wunderground v.1.15,2013-05-12 04:42:00,
2013-05-12 00:43:00,61.1,60.0,29.55,SSW,207,0.0,7.0,96,0.00,,,0.09,Wunderground v.1.15,2013-05-12 04:43:00,
2013-05-12 00:46:00,61.1,60.0,29.55,SSW,207,1.0,7.0,96,0.00,,,0.09,Wunderground v.1.15,2013-05-12 04:46:00,
2013-05-12 00:47:00,61.1,60.0,29.55,SSW,207,0.0,7.0,96,0.00,,,0.09,Wunderground v.1.15,2013-05-12 04:47:00,
2013-05-12 00:51:00,61.1,60.0,29.55,SSW,207,0.0,7.0,96,0.00,,,0.09,Wunderground v.1.15,2013-05-12 04:51:00,
2013-05-12 00:53:00,61.1,60.0,29.54,SSW,207,0.0,7.0,96,0.00,,,0.09,Wunderground v.1.15,2013-05-12 04:53:00,
2013-05-12 00:54:00,61.1,60.0,29.54,SSW,207,0.0,7.0,96,0.00,,,0.09,Wunderground v.1.15,2013-05-12 04:54:00,
2013-05-12 00:55:00,61.1,60.0,29.54,SSW,207,0.0,7.0,96,0.00,,,0.09,Wunderground v.1.15,2013-05-12 04:55:00,
2013-05-12 00:58:00,61.1,60.0,29.54,SSW,207,0.0,7.0,96,0.00,,,0.09,Wunderground v.1.15,2013-05-12 04:58:00,
2013-05-12 01:01:00,61.0,59.9,29.55,SSW,207,0.0,4.0,96,0.00,,,0.09,Wunderground v.1.15,2013-05-12 05:01:00,
2013-05-12 01:02:00,61.0,59.9,29.55,SSW,207,0.0,4.0,96,0.00,,,0.09,Wunderground v.1.15,2013-05-12 05:02:00,
2013-05-12 01:03:00,61.0,59.9,29.55,SSW,207,0.0,4.0,96,0.00,,,0.09,Wunderground v.1.15,2013-05-12 05:03:00,
2013-05-12 01:04:00,61.0,59.9,29.55,SSW,207,0.0,4.0,96,0.00,,,0.09,Wunderground v.1.15,2013-05-12 05:04:00,
2013-05-12 01:07:00,61.0,59.9,29.55,SSW,207,0.0,4.0,96,0.00,,,0.09,Wunderground v.1.15,2013-05-12 05:07:00,
2013-05-12 01:10:00,61.0,59.9,29.54,SSW,207,0.0,4.0,96,0.00,,,0.09,Wunderground v.1.15,2013-05-12 05:10:00,
2013-05-12 01:13:00,61.0,59.9,29.54,SSW,207,0.0,4.0,96,0.00,,,0.09,Wunderground v.1.15,2013-05-12 05:13:00,
2013-05-12 01:14:00,61.0,59.9,29.54,SSW,207,0.0,4.0,96,0.00,,,0.09,Wunderground v.1.15,2013-05-12 05:14:00,
2013-05-12 01:16:00,61.0,59.9,29.54,SSW,207,0.0,4.0,96,0.00,,,0.09,Wunderground v.1.15,2013-05-12 05:16:00,
2013-05-12 01:19:00,61.0,59.9,29.54,SSW,207,0.0,4.0,96,0.00,,,0.09,Wunderground v.1.15,2013-05-12 05:19:00,
2013-05-12 01:20:00,60.9,59.8,29.54,SSW,207,0.0,4.0,96,0.00,,,0.09,Wunderground v.1.15,2013-05-12 05:20:00,
2013-05-12 01:21:00,60.9,59.8,29.53,SSW,207,0.0,4.0,96,0.00,,,0.09,Wunderground v.1.15,2013-05-12 05:21:00,
2013-05-12 01:25:00,60.9,59.8,29.53,SSW,207,0.0,4.0,96,0.00,,,0.09,Wunderground v.1.15,2013-05-12 05:25:00,
2013-05-12 01:26:00,60.9,59.8,29.54,SSW,207,0.0,4.0,96,0.00,,,0.09,Wunderground v.1.15,2013-05-12 05:26:00,
2013-05-12 01:28:00,60.9,59.8,29.53,SSW,207,0.0,4.0,96,0.00,,,0.09,Wunderground v.1.15,2013-05-12 05:28:00,
2013-05-12 01:31:00,60.9,59.8,29.53,SSW,207,0.0,4.0,96,0.00,,,0.09,Wunderground v.1.15,2013-05-12 05:31:00,
2013-05-12 01:34:00,60.9,59.8,29.53,SSW,207,0.0,4.0,96,0.00,,,0.00,Wunderground v.1.15,2013-05-12 05:34:00,
2013-05-12 01:36:00,60.9,59.8,29.54,SSW,207,0.0,4.0,96,0.00,,,0.00,Wunderground v.1.15,2013-05-12 05:36:00,
2013-05-12 01:37:00,60.9,59.8,29.54,SSW,207,0.0,4.0,96,0.00,,,0.00,Wunderground v.1.15,2013-05-12 05:37:00,
2013-05-12 01:38:00,60.9,59.8,29.54,SSW,207,0.0,4.0,96,0.00,,,0.00,Wunderground v.1.15,2013-05-12 05:38:00,
2013-05-12 01:42:00,60.9,59.8,29.54,SW,215,0.0,4.0,96,0.00,,,0.00,Wunderground v.1.15,2013-05-12 05:42:00,
2013-05-12 01:43:00,60.9,60.0,29.54,SW,216,0.0,4.0,97,0.00,,,0.00,Wunderground v.1.15,2013-05-12 05:43:00,
2013-05-12 01:45:00,60.8,59.9,29.53,SW,216,0.0,4.0,97,0.00,,,0.00,Wunderground v.1.15,2013-05-12 05:45:00,
2013-05-12 01:48:00,60.8,59.9,29.53,SW,216,1.0,4.0,97,0.00,,,0.00,Wunderground v.1.15,2013-05-12 05:48:00,
2013-05-12 01:49:00,60.9,60.0,29.53,SW,216,1.0,4.0,97,0.00,,,0.00,Wunderground v.1.15,2013-05-12 05:49:00,
2013-05-12 01:50:00,60.8,59.9,29.54,SW,216,0.0,4.0,97,0.00,,,0.00,Wunderground v.1.15,2013-05-12 05:50:00,
2013-05-12 01:52:00,60.8,59.9,29.53,SW,216,0.0,4.0,97,0.00,,,0.00,Wunderground v.1.15,2013-05-12 05:52:00,
2013-05-12 01:55:00,60.8,59.9,29.53,SW,216,0.0,4.0,97,0.00,,,0.00,Wunderground v.1.15,2013-05-12 05:55:00,
2013-05-12 01:57:00,60.8,59.9,29.53,NW,308,0.0,4.0,97,0.00,,,0.00,Wunderground v.1.15,2013-05-12 05:57:00,
2013-05-12 02:00:00,60.5,59.4,29.53,NNW,344,0.0,4.0,96,0.00,,,0.00,Wunderground v.1.15,2013-05-12 06:00:00,
2013-05-12 02:02:00,60.3,59.2,29.53,NNW,344,0.0,4.0,96,0.00,,,0.00,Wunderground v.1.15,2013-05-12 06:02:00,
2013-05-12 02:04:00,60.2,59.1,29.53,NNW,344,0.0,4.0,96,0.00,,,0.00,Wunderground v.1.15,2013-05-12 06:04:00,
2013-05-12 02:05:00,60.0,58.9,29.53,NNW,344,0.0,4.0,96,0.00,,,0.00,Wunderground v.1.15,2013-05-12 06:05:00,
2013-05-12 02:07:00,59.8,58.7,29.53,NNW,344,0.0,4.0,96,0.00,,,0.00,Wunderground v.1.15,2013-05-12 06:07:00,
2013-05-12 02:10:00,59.7,58.6,29.53,NNW,336,0.0,4.0,96,0.00,,,0.00,Wunderground v.1.15,2013-05-12 06:10:00,
2013-05-12 02:13:00,59.6,58.5,29.53,NNW,336,0.0,4.0,96,0.00,,,0.00,Wunderground v.1.15,2013-05-12 06:13:00,
2013-05-12 02:15:00,59.5,58.4,29.53,NNW,336,0.0,4.0,96,0.00,,,0.00,Wunderground v.1.15,2013-05-12 06:15:00,
2013-05-12 02:17:00,59.5,58.4,29.54,NNW,336,0.0,4.0,96,0.00,,,0.00,Wunderground v.1.15,2013-05-12 06:17:00,
2013-05-12 02:20:00,59.5,58.4,29.54,WNW,299,1.0,4.0,96,0.00,,,0.01,Wunderground v.1.15,2013-05-12 06:20:00,
2013-05-12 02:21:00,59.4,58.3,29.54,WNW,299,1.0,4.0,96,0.00,,,0.01,Wunderground v.1.15,2013-05-12 06:21:00,
2013-05-12 02:23:00,59.3,58.2,29.54,NW,318,1.0,4.0,96,0.00,,,0.01,Wunderground v.1.15,2013-05-12 06:23:00,
2013-05-12 02:24:00,59.2,58.1,29.54,NW,321,1.0,4.0,96,0.00,,,0.01,Wunderground v.1.15,2013-05-12 06:24:00,
2013-05-12 02:25:00,59.1,58.0,29.54,NW,321,1.0,4.0,96,0.00,,,0.01,Wunderground v.1.15,2013-05-12 06:25:00,
2013-05-12 02:28:00,59.0,57.6,29.54,NW,321,1.0,4.0,95,0.00,,,0.01,Wunderground v.1.15,2013-05-12 06:28:00,
2013-05-12 02:30:00,58.9,57.5,29.54,NW,321,1.0,1.0,95,0.00,,,0.01,Wunderground v.1.15,2013-05-12 06:30:00,
2013-05-12 02:32:00,58.8,57.4,29.54,NW,319,1.0,4.0,95,0.00,,,0.01,Wunderground v.1.15,2013-05-12 06:32:00,
2013-05-12 02:33:00,58.8,57.4,29.54,NW,319,1.0,4.0,95,0.00,,,0.01,Wunderground v.1.15,2013-05-12 06:33:00,
2013-05-12 02:38:00,58.7,57.3,29.54,NW,319,0.0,4.0,95,0.00,,,0.01,Wunderground v.1.15,2013-05-12 06:38:00,
2013-05-12 02:39:00,58.6,57.2,29.54,NW,319,0.0,4.0,95,0.00,,,0.01,Wunderground v.1.15,2013-05-12 06:39:00,
2013-05-12 02:40:00,58.6,57.2,29.54,NW,319,0.0,4.0,95,0.00,,,0.01,Wunderground v.1.15,2013-05-12 06:40:00,
2013-05-12 02:42:00,58.6,57.2,29.54,NW,319,0.0,4.0,95,0.00,,,0.01,Wunderground v.1.15,2013-05-12 06:42:00,
2013-05-12 02:44:00,58.6,57.2,29.54,NW,319,0.0,4.0,95,0.00,,,0.01,Wunderground v.1.15,2013-05-12 06:44:00,
2013-05-12 02:46:00,58.6,57.2,29.55,NW,319,0.0,4.0,95,0.00,,,0.01,Wunderground v.1.15,2013-05-12 06:46:00,
2013-05-12 02:51:00,58.6,57.2,29.55,NW,319,0.0,4.0,95,0.00,,,0.01,Wunderground v.1.15,2013-05-12 06:51:00,
2013-05-12 02:52:00,58.5,57.1,29.55,NW,319,0.0,4.0,95,0.00,,,0.01,Wunderground v.1.15,2013-05-12 06:52:00,
2013-05-12 02:53:00,58.5,57.1,29.55,NW,319,0.0,4.0,95,0.00,,,0.01,Wunderground v.1.15,2013-05-12 06:53:00,
2013-05-12 02:55:00,58.5,57.1,29.55,NW,319,0.0,4.0,95,0.00,,,0.01,Wunderground v.1.15,2013-05-12 06:55:00,
2013-05-12 02:57:00,58.5,57.1,29.54,NW,319,0.0,4.0,95,0.00,,,0.01,Wunderground v.1.15,2013-05-12 06:57:00,
2013-05-12 02:59:00,58.5,57.1,29.54,NW,319,0.0,4.0,95,0.00,,,0.01,Wunderground v.1.15,2013-05-12 06:59:00,
2013-05-12 03:01:00,58.5,57.1,29.53,NW,319,0.0,2.0,95,0.00,,,0.01,Wunderground v.1.15,2013-05-12 07:01:00,
2013-05-12 03:03:00,58.5,57.1,29.54,NW,319,0.0,2.0,95,0.00,,,0.01,Wunderground v.1.15,2013-05-12 07:03:00,
2013-05-12 03:04:00,58.5,57.1,29.54,NW,319,0.0,2.0,95,0.00,,,0.01,Wunderground v.1.15,2013-05-12 07:04:00,
2013-05-12 03:06:00,58.5,57.1,29.54,NW,319,0.0,2.0,95,0.00,,,0.01,Wunderground v.1.15,2013-05-12 07:06:00,
2013-05-12 03:07:00,58.6,57.2,29.54,NW,319,0.0,2.0,95,0.00,,,0.01,Wunderground v.1.15,2013-05-12 07:07:00,
2013-05-12 03:08:00,58.6,57.2,29.53,NW,319,0.0,2.0,95,0.00,,,0.01,Wunderground v.1.15,2013-05-12 07:08:00,
2013-05-12 03:12:00,58.5,57.1,29.53,NW,319,0.0,2.0,95,0.00,,,0.01,Wunderground v.1.15,2013-05-12 07:12:00,
2013-05-12 03:13:00,58.5,57.1,29.53,NW,319,0.0,2.0,95,0.00,,,0.01,Wunderground v.1.15,2013-05-12 07:13:00,
2013-05-12 03:14:00,58.5,57.1,29.53,NW,319,0.0,2.0,95,0.00,,,0.01,Wunderground v.1.15,2013-05-12 07:14:00,
2013-05-12 03:16:00,58.4,57.0,29.53,NW,319,0.0,2.0,95,0.00,,,0.01,Wunderground v.1.15,2013-05-12 07:16:00,
2013-05-12 03:17:00,58.4,57.0,29.53,NW,319,0.0,2.0,95,0.00,,,0.01,Wunderground v.1.15,2013-05-12 07:17:00,
2013-05-12 03:19:00,58.4,57.0,29.53,NW,319,0.0,2.0,95,0.00,,,0.01,Wunderground v.1.15,2013-05-12 07:19:00,
2013-05-12 03:22:00,58.3,56.9,29.53,NW,319,0.0,2.0,95,0.00,,,0.01,Wunderground v.1.15,2013-05-12 07:22:00,
2013-05-12 03:25:00,58.3,56.9,29.52,NW,319,0.0,2.0,95,0.00,,,0.01,Wunderground v.1.15,2013-05-12 07:25:00,
2013-05-12 03:27:00,58.3,56.9,29.53,NW,319,0.0,2.0,95,0.00,,,0.01,Wunderground v.1.15,2013-05-12 07:27:00,
2013-05-12 03:29:00,58.3,56.9,29.52,NW,319,0.0,2.0,95,0.00,,,0.01,Wunderground v.1.15,2013-05-12 07:29:00,
2013-05-12 03:30:00,58.3,56.9,29.52,NW,319,0.0,2.0,95,0.00,,,0.01,Wunderground v.1.15,2013-05-12 07:30:00,
2013-05-12 03:33:00,58.3,56.9,29.52,NW,319,0.0,2.0,95,0.00,,,0.01,Wunderground v.1.15,2013-05-12 07:33:00,
2013-05-12 03:35:00,58.3,56.9,29.52,NW,319,0.0,2.0,95,0.00,,,0.01,Wunderground v.1.15,2013-05-12 07:35:00,
2013-05-12 03:37:00,58.3,56.9,29.51,NW,319,0.0,2.0,95,0.00,,,0.01,Wunderground v.1.15,2013-05-12 07:37:00,
2013-05-12 03:38:00,58.2,56.8,29.51,NW,319,0.0,2.0,95,0.00,,,0.01,Wunderground v.1.15,2013-05-12 07:38:00,
2013-05-12 03:40:00,58.2,56.8,29.51,NW,319,0.0,2.0,95,0.00,,,0.01,Wunderground v.1.15,2013-05-12 07:40:00,
2013-05-12 03:42:00,58.1,56.7,29.51,NW,319,0.0,2.0,95,0.00,,,0.01,Wunderground v.1.15,2013-05-12 07:42:00,
2013-05-12 03:43:00,58.0,56.6,29.51,NW,319,0.0,2.0,95,0.00,,,0.01,Wunderground v.1.15,2013-05-12 07:43:00,
2013-05-12 03:44:00,58.0,56.6,29.51,NW,319,0.0,2.0,95,0.00,,,0.01,Wunderground v.1.15,2013-05-12 07:44:00,
2013-05-12 03:46:00,57.9,56.5,29.51,NW,319,0.0,2.0,95,0.00,,,0.01,Wunderground v.1.15,2013-05-12 07:46:00,
2013-05-12 03:47:00,57.8,56.4,29.51,NW,319,0.0,2.0,95,0.00,,,0.01,Wunderground v.1.15,2013-05-12 07:47:00,
2013-05-12 03:50:00,57.7,56.3,29.51,NW,319,0.0,2.0,95,0.00,,,0.01,Wunderground v.1.15,2013-05-12 07:50:00,
2013-05-12 03:54:00,57.5,56.1,29.51,NW,319,0.0,2.0,95,0.00,,,0.01,Wunderground v.1.15,2013-05-12 07:54:00,
2013-05-12 03:55:00,57.5,56.1,29.51,NW,319,0.0,2.0,95,0.00,,,0.01,Wunderground v.1.15,2013-05-12 07:55:00,
2013-05-12 03:56:00,57.5,56.1,29.51,NW,319,0.0,2.0,95,0.00,,,0.01,Wunderground v.1.15,2013-05-12 07:56:00,
2013-05-12 03:57:00,57.5,56.1,29.51,NW,319,0.0,2.0,95,0.00,,,0.01,Wunderground v.1.15,2013-05-12 07:57:00,
2013-05-12 04:00:00,57.4,56.0,29.51,NW,319,0.0,1.0,95,0.00,,,0.01,Wunderground v.1.15,2013-05-12 08:00:00,
2013-05-12 04:02:00,57.4,56.0,29.51,NW,319,0.0,1.0,95,0.00,,,0.01,Wunderground v.1.15,2013-05-12 08:02:00,
2013-05-12 04:03:00,57.3,55.9,29.51,NW,319,0.0,1.0,95,0.00,,,0.01,Wunderground v.1.15,2013-05-12 08:03:00,
2013-05-12 04:04:00,57.3,55.9,29.51,NW,319,0.0,1.0,95,0.00,,,0.01,Wunderground v.1.15,2013-05-12 08:04:00,
2013-05-12 04:05:00,57.3,55.9,29.51,NW,319,0.0,1.0,95,0.00,,,0.01,Wunderground v.1.15,2013-05-12 08:05:00,
2013-05-12 04:07:00,57.2,55.8,29.51,NW,319,0.0,1.0,95,0.00,,,0.01,Wunderground v.1.15,2013-05-12 08:07:00,
2013-05-12 04:09:00,57.2,55.8,29.51,NW,319,0.0,1.0,95,0.00,,,0.01,Wunderground v.1.15,2013-05-12 08:09:00,
2013-05-12 04:11:00,57.1,55.7,29.51,NW,319,0.0,1.0,95,0.00,,,0.01,Wunderground v.1.15,2013-05-12 08:11:00,
2013-05-12 04:14:00,57.1,55.7,29.52,NW,319,0.0,1.0,95,0.00,,,0.01,Wunderground v.1.15,2013-05-12 08:14:00,
2013-05-12 04:15:00,57.1,55.7,29.52,NW,319,0.0,1.0,95,0.00,,,0.01,Wunderground v.1.15,2013-05-12 08:15:00,
2013-05-12 04:16:00,57.1,55.7,29.52,NW,319,0.0,1.0,95,0.00,,,0.01,Wunderground v.1.15,2013-05-12 08:16:00,
2013-05-12 04:18:00,57.0,55.6,29.52,NW,319,0.0,1.0,95,0.00,,,0.01,Wunderground v.1.15,2013-05-12 08:18:00,
2013-05-12 04:21:00,57.0,55.6,29.52,NW,319,0.0,1.0,95,0.00,,,0.01,Wunderground v.1.15,2013-05-12 08:21:00,
2013-05-12 04:23:00,57.0,55.6,29.53,NW,319,0.0,1.0,95,0.00,,,0.01,Wunderground v.1.15,2013-05-12 08:23:00,
2013-05-12 04:25:00,57.1,55.7,29.53,NW,319,0.0,1.0,95,0.00,,,0.01,Wunderground v.1.15,2013-05-12 08:25:00,
2013-05-12 04:28:00,57.1,56.0,29.53,NW,319,0.0,1.0,96,0.00,,,0.01,Wunderground v.1.15,2013-05-12 08:28:00,
2013-05-12 04:31:00,57.1,56.0,29.54,NW,319,0.0,1.0,96,0.00,,,0.01,Wunderground v.1.15,2013-05-12 08:31:00,
2013-05-12 04:32:00,57.1,56.0,29.54,NW,319,0.0,3.0,96,0.00,,,0.01,Wunderground v.1.15,2013-05-12 08:32:00,
2013-05-12 04:33:00,57.1,56.0,29.54,NW,319,0.0,3.0,96,0.00,,,0.01,Wunderground v.1.15,2013-05-12 08:33:00,
2013-05-12 04:38:00,57.2,56.1,29.53,NW,319,0.0,3.0,96,0.00,,,0.01,Wunderground v.1.15,2013-05-12 08:38:00,
2013-05-12 04:39:00,57.2,56.1,29.53,NW,319,0.0,3.0,96,0.00,,,0.01,Wunderground v.1.15,2013-05-12 08:39:00,
2013-05-12 04:43:00,57.2,56.1,29.53,NW,319,0.0,1.0,96,0.00,,,0.01,Wunderground v.1.15,2013-05-12 08:43:00,
2013-05-12 04:44:00,57.2,56.1,29.53,NW,319,0.0,1.0,96,0.00,,,0.01,Wunderground v.1.15,2013-05-12 08:44:00,
2013-05-12 04:45:00,57.2,56.1,29.53,NW,319,0.0,1.0,96,0.00,,,0.01,Wunderground v.1.15,2013-05-12 08:45:00,
2013-05-12 04:48:00,57.2,56.1,29.52,NW,319,0.0,1.0,96,0.00,,,0.01,Wunderground v.1.15,2013-05-12 08:48:00,
2013-05-12 04:49:00,57.2,56.1,29.52,NW,319,0.0,1.0,96,0.00,,,0.01,Wunderground v.1.15,2013-05-12 08:49:00,
2013-05-12 04:50:00,57.2,56.1,29.52,NW,319,0.0,1.0,96,0.00,,,0.01,Wunderground v.1.15,2013-05-12 08:50:00,
2013-05-12 04:53:00,57.1,56.0,29.52,NW,319,0.0,1.0,96,0.00,,,0.01,Wunderground v.1.15,2013-05-12 08:53:00,
2013-05-12 04:56:00,57.0,55.9,29.52,NW,319,0.0,1.0,96,0.00,,,0.01,Wunderground v.1.15,2013-05-12 08:56:00,
2013-05-12 05:00:00,56.9,55.8,29.52,NW,319,0.0,3.0,96,0.00,,,0.01,Wunderground v.1.15,2013-05-12 09:00:00,
2013-05-12 05:01:00,56.9,55.8,29.52,NW,319,0.0,3.0,96,0.00,,,0.01,Wunderground v.1.15,2013-05-12 09:01:00,
2013-05-12 05:02:00,56.9,55.8,29.51,NW,319,0.0,3.0,96,0.00,,,0.01,Wunderground v.1.15,2013-05-12 09:02:00,
2013-05-12 05:03:00,56.9,55.8,29.51,NW,319,0.0,3.0,96,0.00,,,0.01,Wunderground v.1.15,2013-05-12 09:03:00,
2013-05-12 05:04:00,56.9,55.8,29.51,NW,319,0.0,3.0,96,0.00,,,0.01,Wunderground v.1.15,2013-05-12 09:04:00,
2013-05-12 05:08:00,56.9,55.8,29.51,NW,319,0.0,3.0,96,0.00,,,0.01,Wunderground v.1.15,2013-05-12 09:08:00,
2013-05-12 05:10:00,56.9,55.8,29.51,NW,319,0.0,3.0,96,0.00,,,0.01,Wunderground v.1.15,2013-05-12 09:10:00,
2013-05-12 05:11:00,56.9,55.8,29.51,NW,319,0.0,3.0,96,0.00,,,0.01,Wunderground v.1.15,2013-05-12 09:11:00,
2013-05-12 05:12:00,56.9,55.8,29.51,NW,319,0.0,3.0,96,0.00,,,0.01,Wunderground v.1.15,2013-05-12 09:12:00,
2013-05-12 05:13:00,56.8,55.7,29.51,NW,319,0.0,3.0,96,0.00,,,0.01,Wunderground v.1.15,2013-05-12 09:13:00,
2013-05-12 05:16:00,56.8,55.7,29.51,NW,319,0.0,3.0,96,0.00,,,0.01,Wunderground v.1.15,2013-05-12 09:16:00,
2013-05-12 05:18:00,56.8,55.7,29.51,NW,319,0.0,3.0,96,0.00,,,0.01,Wunderground v.1.15,2013-05-12 09:18:00,
2013-05-12 05:20:00,56.8,55.7,29.51,NW,319,0.0,3.0,96,0.00,,,0.01,Wunderground v.1.15,2013-05-12 09:20:00,
2013-05-12 05:21:00,56.8,55.7,29.51,NW,319,0.0,3.0,96,0.00,,,0.01,Wunderground v.1.15,2013-05-12 09:21:00,
2013-05-12 05:25:00,56.7,55.6,29.51,NW,319,0.0,3.0,96,0.00,,,0.01,Wunderground v.1.15,2013-05-12 09:25:00,
2013-05-12 05:26:00,56.7,55.6,29.51,NW,319,0.0,3.0,96,0.00,,,0.01,Wunderground v.1.15,2013-05-12 09:26:00,
2013-05-12 05:30:00,56.7,55.6,29.52,NW,319,0.0,3.0,96,0.00,,,0.01,Wunderground v.1.15,2013-05-12 09:30:00,
2013-05-12 05:31:00,56.6,55.5,29.52,NW,319,0.0,3.0,96,0.00,,,0.01,Wunderground v.1.15,2013-05-12 09:31:00,
2013-05-12 05:34:00,56.6,55.5,29.52,NW,319,0.0,3.0,96,0.00,,,0.01,Wunderground v.1.15,2013-05-12 09:34:00,
2013-05-12 05:35:00,56.5,55.4,29.52,NW,319,0.0,3.0,96,0.00,,,0.01,Wunderground v.1.15,2013-05-12 09:35:00,
2013-05-12 05:37:00,56.5,55.4,29.52,NW,319,0.0,3.0,96,0.00,,,0.01,Wunderground v.1.15,2013-05-12 09:37:00,
2013-05-12 05:38:00,56.5,55.4,29.52,NW,319,0.0,3.0,96,0.00,,,0.01,Wunderground v.1.15,2013-05-12 09:38:00,
2013-05-12 05:41:00,56.4,55.3,29.52,NW,319,0.0,3.0,96,0.00,,,0.01,Wunderground v.1.15,2013-05-12 09:41:00,
2013-05-12 05:43:00,56.3,55.2,29.52,NW,319,0.0,3.0,96,0.00,,,0.01,Wunderground v.1.15,2013-05-12 09:43:00,
2013-05-12 05:45:00,56.3,55.2,29.52,NW,319,0.0,3.0,96,0.00,,,0.01,Wunderground v.1.15,2013-05-12 09:45:00,
2013-05-12 05:47:00,56.2,55.1,29.52,NW,319,0.0,3.0,96,0.00,,,0.01,Wunderground v.1.15,2013-05-12 09:47:00,
2013-05-12 05:48:00,56.2,55.1,29.52,NW,319,0.0,3.0,96,0.00,,,0.01,Wunderground v.1.15,2013-05-12 09:48:00,
2013-05-12 05:50:00,56.1,55.0,29.52,NW,319,0.0,3.0,96,0.00,,,0.01,Wunderground v.1.15,2013-05-12 09:50:00,
2013-05-12 05:52:00,56.1,55.0,29.52,NW,319,0.0,3.0,96,0.00,,,0.01,Wunderground v.1.15,2013-05-12 09:52:00,
2013-05-12 05:54:00,56.1,55.3,29.53,NW,319,0.0,3.0,97,0.00,,,0.01,Wunderground v.1.15,2013-05-12 09:54:00,
2013-05-12 05:56:00,56.1,55.3,29.53,NW,319,0.0,3.0,97,0.00,,,0.01,Wunderground v.1.15,2013-05-12 09:56:00,
2013-05-12 06:01:00,56.0,54.9,29.53,NW,319,0.0,3.0,96,0.00,,,0.01,Wunderground v.1.15,2013-05-12 10:01:00,
2013-05-12 06:02:00,56.0,54.9,29.53,NW,319,0.0,3.0,96,0.00,,,0.01,Wunderground v.1.15,2013-05-12 10:02:00,
2013-05-12 06:03:00,56.0,54.9,29.53,NW,319,0.0,3.0,96,0.00,,,0.01,Wunderground v.1.15,2013-05-12 10:03:00,
2013-05-12 06:05:00,56.0,54.9,29.53,NW,319,0.0,3.0,96,0.00,,,0.01,Wunderground v.1.15,2013-05-12 10:05:00,
2013-05-12 06:08:00,56.1,55.0,29.53,NW,319,0.0,3.0,96,0.00,,,0.01,Wunderground v.1.15,2013-05-12 10:08:00,
2013-05-12 06:09:00,56.0,54.9,29.53,NW,319,0.0,3.0,96,0.00,,,0.01,Wunderground v.1.15,2013-05-12 10:09:00,
2013-05-12 06:11:00,56.0,54.9,29.54,NW,319,0.0,3.0,96,0.00,,,0.01,Wunderground v.1.15,2013-05-12 10:11:00,
2013-05-12 06:12:00,56.1,55.0,29.54,NW,319,0.0,3.0,96,0.00,,,0.01,Wunderground v.1.15,2013-05-12 10:12:00,
2013-05-12 06:13:00,56.0,54.9,29.54,NW,319,0.0,3.0,96,0.00,,,0.01,Wunderground v.1.15,2013-05-12 10:13:00,
2013-05-12 06:17:00,56.0,55.2,29.54,NNE,29,0.0,3.0,97,0.00,,,0.01,Wunderground v.1.15,2013-05-12 10:17:00,
2013-05-12 06:18:00,56.0,55.2,29.54,NNE,29,0.0,3.0,97,0.00,,,0.01,Wunderground v.1.15,2013-05-12 10:18:00,
2013-05-12 06:19:00,56.0,55.2,29.54,NNE,29,0.0,3.0,97,0.00,,,0.01,Wunderground v.1.15,2013-05-12 10:19:00,
2013-05-12 06:23:00,56.0,55.2,29.54,NNE,29,0.0,3.0,97,0.00,,,0.01,Wunderground v.1.15,2013-05-12 10:23:00,
2013-05-12 06:24:00,56.0,55.2,29.54,NNE,29,0.0,3.0,97,0.00,,,0.01,Wunderground v.1.15,2013-05-12 10:24:00,
2013-05-12 06:26:00,56.0,55.2,29.54,NNE,29,0.0,3.0,97,0.00,,,0.01,Wunderground v.1.15,2013-05-12 10:26:00,
2013-05-12 06:28:00,56.0,54.9,29.54,NNE,29,0.0,3.0,96,0.00,,,0.01,Wunderground v.1.15,2013-05-12 10:28:00,
2013-05-12 06:30:00,56.0,55.2,29.54,NNE,29,0.0,3.0,97,0.00,,,0.01,Wunderground v.1.15,2013-05-12 10:30:00,
2013-05-12 06:32:00,56.0,55.2,29.54,NNE,29,0.0,3.0,97,0.00,,,0.01,Wunderground v.1.15,2013-05-12 10:32:00,
2013-05-12 06:33:00,55.9,55.1,29.54,NNE,29,0.0,3.0,97,0.00,,,0.01,Wunderground v.1.15,2013-05-12 10:33:00,
2013-05-12 06:35:00,55.9,55.1,29.54,NNE,29,0.0,3.0,97,0.00,,,0.01,Wunderground v.1.15,2013-05-12 10:35:00,
2013-05-12 06:40:00,55.8,55.0,29.54,NNE,29,0.0,3.0,97,0.00,,,0.01,Wunderground v.1.15,2013-05-12 10:40:00,
2013-05-12 06:41:00,55.9,55.1,29.54,NNE,29,0.0,3.0,97,0.00,,,0.01,Wunderground v.1.15,2013-05-12 10:41:00,
2013-05-12 06:42:00,55.9,55.1,29.54,NNE,29,0.0,3.0,97,0.00,,,0.01,Wunderground v.1.15,2013-05-12 10:42:00,
2013-05-12 06:44:00,55.9,55.1,29.53,NNE,29,0.0,3.0,97,0.00,,,0.01,Wunderground v.1.15,2013-05-12 10:44:00,
2013-05-12 06:45:00,55.8,55.0,29.53,NNE,29,0.0,3.0,97,0.00,,,0.01,Wunderground v.1.15,2013-05-12 10:45:00,
2013-05-12 06:46:00,55.8,55.0,29.53,NNE,29,0.0,3.0,97,0.00,,,0.01,Wunderground v.1.15,2013-05-12 10:46:00,
2013-05-12 06:47:00,55.8,55.0,29.53,NNE,29,0.0,3.0,97,0.00,,,0.01,Wunderground v.1.15,2013-05-12 10:47:00,
2013-05-12 06:49:00,55.7,54.9,29.53,NNE,29,0.0,3.0,97,0.00,,,0.01,Wunderground v.1.15,2013-05-12 10:49:00,
2013-05-12 06:50:00,55.7,54.9,29.53,NNE,29,0.0,3.0,97,0.00,,,0.01,Wunderground v.1.15,2013-05-12 10:50:00,
2013-05-12 06:52:00,55.6,54.8,29.53,NNE,29,0.0,3.0,97,0.00,,,0.01,Wunderground v.1.15,2013-05-12 10:52:00,
2013-05-12 06:55:00,55.5,54.4,29.53,NNE,29,0.0,3.0,96,0.00,,,0.01,Wunderground v.1.15,2013-05-12 10:55:00,
2013-05-12 06:57:00,55.5,54.4,29.54,NNE,29,0.0,3.0,96,0.00,,,0.01,Wunderground v.1.15,2013-05-12 10:57:00,
2013-05-12 07:00:00,55.4,54.3,29.54,NNE,29,0.0,0.0,96,0.00,,,0.01,Wunderground v.1.15,2013-05-12 11:00:00,
2013-05-12 07:05:00,55.4,55.4,29.54,NNE,29,0.0,1.0,100,0.00,,,0.01,Wunderground v.1.15,2013-05-12 11:05:00,
2013-05-12 07:07:00,55.3,54.2,29.54,NNE,29,0.0,1.0,96,0.00,,,0.01,Wunderground v.1.15,2013-05-12 11:07:00,
2013-05-12 07:09:00,55.4,55.4,29.54,NNE,29,0.0,1.0,100,0.00,,,0.01,Wunderground v.1.15,2013-05-12 11:09:00,
2013-05-12 07:12:00,55.4,54.3,29.54,NNE,29,0.0,2.0,96,0.00,,,0.01,Wunderground v.1.15,2013-05-12 11:12:00,
2013-05-12 07:13:00,55.4,54.3,29.54,NNE,29,0.0,2.0,96,0.00,,,0.01,Wunderground v.1.15,2013-05-12 11:13:00,
2013-05-12 07:15:00,55.4,55.4,29.54,NNE,29,0.0,2.0,100,0.00,,,0.01,Wunderground v.1.15,2013-05-12 11:15:00,
2013-05-12 07:16:00,55.5,54.4,29.54,NNE,29,0.0,2.0,96,0.00,,,0.01,Wunderground v.1.15,2013-05-12 11:16:00,
2013-05-12 07:19:00,55.6,54.5,29.53,NNE,29,0.0,2.0,96,0.00,,,0.01,Wunderground v.1.15,2013-05-12 11:19:00,
2013-05-12 07:21:00,55.7,54.6,29.53,NNE,29,0.0,0.0,96,0.00,,,0.01,Wunderground v.1.15,2013-05-12 11:21:00,
2013-05-12 07:24:00,55.8,54.7,29.53,NNE,29,0.0,0.0,96,0.00,,,0.01,Wunderground v.1.15,2013-05-12 11:24:00,
2013-05-12 07:25:00,55.7,54.6,29.53,NNE,29,0.0,0.0,96,0.00,,,0.01,Wunderground v.1.15,2013-05-12 11:25:00,
2013-05-12 07:29:00,55.5,54.4,29.53,NNE,29,0.0,0.0,96,0.00,,,0.01,Wunderground v.1.15,2013-05-12 11:29:00,
2013-05-12 07:30:00,55.5,54.4,29.53,NNE,29,0.0,0.0,96,0.00,,,0.01,Wunderground v.1.15,2013-05-12 11:30:00,
2013-05-12 07:31:00,55.4,54.3,29.53,NNE,29,0.0,0.0,96,0.00,,,0.01,Wunderground v.1.15,2013-05-12 11:31:00,
2013-05-12 07:34:00,55.5,54.4,29.53,NNE,29,0.0,0.0,96,0.00,,,0.01,Wunderground v.1.15,2013-05-12 11:34:00,
2013-05-12 07:36:00,55.4,54.3,29.53,NNE,29,0.0,0.0,96,0.00,,,0.01,Wunderground v.1.15,2013-05-12 11:36:00,
2013-05-12 07:39:00,55.4,54.3,29.53,NNE,29,0.0,0.0,96,0.00,,,0.01,Wunderground v.1.15,2013-05-12 11:39:00,
2013-05-12 07:40:00,55.3,54.2,29.53,NNE,29,0.0,0.0,96,0.00,,,0.01,Wunderground v.1.15,2013-05-12 11:40:00,
2013-05-12 07:41:00,55.2,53.8,29.53,NNE,29,0.0,0.0,95,0.00,,,0.01,Wunderground v.1.15,2013-05-12 11:41:00,
2013-05-12 07:42:00,55.2,53.8,29.53,NNE,29,0.0,0.0,95,0.00,,,0.01,Wunderground v.1.15,2013-05-12 11:42:00,
2013-05-12 07:45:00,55.2,53.8,29.54,NNE,29,0.0,0.0,95,0.00,,,0.01,Wunderground v.1.15,2013-05-12 11:45:00,
2013-05-12 07:47:00,55.3,53.9,29.53,NNE,29,0.0,0.0,95,0.00,,,0.01,Wunderground v.1.15,2013-05-12 11:47:00,
2013-05-12 07:49:00,55.3,53.9,29.53,NNE,29,0.0,0.0,95,0.00,,,0.01,Wunderground v.1.15,2013-05-12 11:49:00,
2013-05-12 07:52:00,55.3,53.6,29.53,NE,40,0.0,0.0,94,0.00,,,0.01,Wunderground v.1.15,2013-05-12 11:52:00,
2013-05-12 07:53:00,55.3,53.6,29.54,NNE,29,0.0,0.0,94,0.00,,,0.01,Wunderground v.1.15,2013-05-12 11:53:00,
2013-05-12 07:54:00,55.3,53.6,29.54,NNE,29,0.0,0.0,94,0.00,,,0.01,Wunderground v.1.15,2013-05-12 11:54:00,
2013-05-12 07:57:00,55.3,53.3,29.54,NNE,29,0.0,0.0,93,0.00,,,0.01,Wunderground v.1.15,2013-05-12 11:57:00,
2013-05-12 07:59:00,55.3,53.3,29.54,NNE,29,0.0,0.0,93,0.00,,,0.01,Wunderground v.1.15,2013-05-12 11:59:00,
2013-05-12 08:00:00,55.3,53.0,29.54,NNE,28,0.0,3.0,92,0.00,,,0.01,Wunderground v.1.15,2013-05-12 12:00:00,
2013-05-12 08:01:00,55.3,53.0,29.54,NNE,28,0.0,3.0,92,0.00,,,0.01,Wunderground v.1.15,2013-05-12 12:01:00,
2013-05-12 08:03:00,55.3,53.0,29.54,NNE,28,0.0,3.0,92,0.00,,,0.01,Wunderground v.1.15,2013-05-12 12:03:00,
2013-05-12 08:04:00,55.3,53.0,29.54,NNE,28,0.0,3.0,92,0.00,,,0.01,Wunderground v.1.15,2013-05-12 12:04:00,
2013-05-12 08:05:00,55.3,53.0,29.54,NNE,28,0.0,3.0,92,0.00,,,0.01,Wunderground v.1.15,2013-05-12 12:05:00,
2013-05-12 08:07:00,55.4,53.1,29.54,NNE,28,0.0,3.0,92,0.00,,,0.01,Wunderground v.1.15,2013-05-12 12:07:00,
2013-05-12 08:13:00,55.4,53.1,29.54,NNE,23,0.0,3.0,92,0.00,,,0.01,Wunderground v.1.15,2013-05-12 12:13:00,
2013-05-12 08:15:00,55.3,52.7,29.54,North,355,0.0,4.0,91,0.00,,,0.01,Wunderground v.1.15,2013-05-12 12:15:00,
2013-05-12 08:16:00,55.2,52.6,29.54,North,355,0.0,4.0,91,0.00,,,0.01,Wunderground v.1.15,2013-05-12 12:16:00,
2013-05-12 08:17:00,55.2,52.6,29.53,North,355,0.0,4.0,91,0.00,,,0.01,Wunderground v.1.15,2013-05-12 12:17:00,
2013-05-12 08:20:00,55.2,52.6,29.53,North,351,0.0,3.0,91,0.00,,,0.01,Wunderground v.1.15,2013-05-12 12:20:00,
2013-05-12 08:22:00,55.1,52.2,29.54,North,351,1.0,3.0,90,0.00,,,0.01,Wunderground v.1.15,2013-05-12 12:22:00,
2013-05-12 08:23:00,55.1,52.5,29.54,North,351,1.0,3.0,91,0.00,,,0.01,Wunderground v.1.15,2013-05-12 12:23:00,
2013-05-12 08:24:00,55.2,52.6,29.54,North,351,0.0,3.0,91,0.00,,,0.01,Wunderground v.1.15,2013-05-12 12:24:00,
2013-05-12 08:26:00,55.1,52.2,29.54,North,351,0.0,3.0,90,0.00,,,0.01,Wunderground v.1.15,2013-05-12 12:26:00,
2013-05-12 08:30:00,55.2,52.3,29.54,North,350,0.0,3.0,90,0.00,,,0.01,Wunderground v.1.15,2013-05-12 12:30:00,
2013-05-12 08:32:00,55.2,52.3,29.54,North,350,0.0,3.0,90,0.00,,,0.01,Wunderground v.1.15,2013-05-12 12:32:00,
2013-05-12 08:33:00,55.2,52.0,29.54,North,350,0.0,3.0,89,0.00,,,0.01,Wunderground v.1.15,2013-05-12 12:33:00,
2013-05-12 08:34:00,55.2,52.0,29.54,North,350,0.0,3.0,89,0.00,,,0.01,Wunderground v.1.15,2013-05-12 12:34:00,
2013-05-12 08:35:00,55.2,52.0,29.54,North,350,0.0,3.0,89,0.00,,,0.01,Wunderground v.1.15,2013-05-12 12:35:00,
2013-05-12 08:37:00,55.2,52.0,29.54,North,350,0.0,3.0,89,0.00,,,0.01,Wunderground v.1.15,2013-05-12 12:37:00,
2013-05-12 08:38:00,55.2,52.0,29.54,North,350,0.0,3.0,89,0.00,,,0.01,Wunderground v.1.15,2013-05-12 12:38:00,
2013-05-12 08:41:00,55.2,52.0,29.54,North,350,0.0,3.0,89,0.00,,,0.01,Wunderground v.1.15,2013-05-12 12:41:00,
2013-05-12 08:45:00,55.2,52.0,29.54,North,350,0.0,3.0,89,0.00,,,0.01,Wunderground v.1.15,2013-05-12 12:45:00,
2013-05-12 08:46:00,55.2,52.0,29.54,North,350,0.0,3.0,89,0.00,,,0.01,Wunderground v.1.15,2013-05-12 12:46:00,
2013-05-12 08:47:00,55.3,52.1,29.54,North,350,0.0,3.0,89,0.00,,,0.01,Wunderground v.1.15,2013-05-12 12:47:00,
2013-05-12 08:51:00,55.3,52.1,29.54,North,350,0.0,3.0,89,0.00,,,0.01,Wunderground v.1.15,2013-05-12 12:51:00,
2013-05-12 08:52:00,55.3,52.1,29.54,North,350,0.0,3.0,89,0.00,,,0.01,Wunderground v.1.15,2013-05-12 12:52:00,
2013-05-12 08:53:00,55.3,52.1,29.54,North,350,0.0,3.0,89,0.00,,,0.01,Wunderground v.1.15,2013-05-12 12:53:00,
2013-05-12 08:55:00,55.3,52.1,29.54,North,350,0.0,3.0,89,0.00,,,0.01,Wunderground v.1.15,2013-05-12 12:55:00,
2013-05-12 08:57:00,55.3,52.1,29.54,North,350,0.0,3.0,89,0.00,,,0.01,Wunderground v.1.15,2013-05-12 12:57:00,
2013-05-12 08:58:00,55.3,52.1,29.54,North,350,0.0,3.0,89,0.00,,,0.01,Wunderground v.1.15,2013-05-12 12:58:00,
2013-05-12 09:01:00,55.3,52.1,29.53,North,350,0.0,0.0,89,0.00,,,0.01,Wunderground v.1.15,2013-05-12 13:01:00,
2013-05-12 09:04:00,55.3,52.1,29.53,North,350,0.0,0.0,89,0.00,,,0.01,Wunderground v.1.15,2013-05-12 13:04:00,
2013-05-12 09:05:00,55.3,52.1,29.53,North,350,0.0,0.0,89,0.00,,,0.01,Wunderground v.1.15,2013-05-12 13:05:00,
2013-05-12 09:08:00,55.3,52.1,29.53,North,350,0.0,0.0,89,0.00,,,0.01,Wunderground v.1.15,2013-05-12 13:08:00,
2013-05-12 09:10:00,55.3,52.1,29.53,North,350,0.0,0.0,89,0.00,,,0.01,Wunderground v.1.15,2013-05-12 13:10:00,
2013-05-12 09:13:00,55.3,52.1,29.53,NW,306,0.0,0.0,89,0.00,,,0.01,Wunderground v.1.15,2013-05-12 13:13:00,
2013-05-12 09:15:00,55.3,52.1,29.53,NW,306,0.0,0.0,89,0.00,,,0.01,Wunderground v.1.15,2013-05-12 13:15:00,
2013-05-12 09:16:00,55.3,52.1,29.53,NW,306,0.0,0.0,89,0.00,,,0.01,Wunderground v.1.15,2013-05-12 13:16:00,
2013-05-12 09:19:00,55.3,52.1,29.52,NW,306,0.0,0.0,89,0.00,,,0.01,Wunderground v.1.15,2013-05-12 13:19:00,
2013-05-12 09:20:00,55.3,52.1,29.52,NW,306,0.0,0.0,89,0.00,,,0.01,Wunderground v.1.15,2013-05-12 13:20:00,
2013-05-12 09:22:00,55.3,52.1,29.52,NW,306,0.0,0.0,89,0.00,,,0.01,Wunderground v.1.15,2013-05-12 13:22:00,
2013-05-12 09:25:00,55.3,51.8,29.52,NW,306,0.0,0.0,88,0.00,,,0.01,Wunderground v.1.15,2013-05-12 13:25:00,
2013-05-12 09:28:00,55.5,52.0,29.52,NW,306,0.0,0.0,88,0.00,,,0.01,Wunderground v.1.15,2013-05-12 13:28:00,
2013-05-12 09:29:00,55.6,52.7,29.52,NW,306,0.0,0.0,90,0.00,,,0.01,Wunderground v.1.15,2013-05-12 13:29:00,
2013-05-12 09:34:00,55.8,52.6,29.52,NW,306,0.0,0.0,89,0.00,,,0.01,Wunderground v.1.15,2013-05-12 13:34:00,
2013-05-12 09:35:00,55.8,52.6,29.52,NW,306,0.0,0.0,89,0.00,,,0.01,Wunderground v.1.15,2013-05-12 13:35:00,
2013-05-12 09:40:00,56.5,53.6,29.52,NW,306,0.0,0.0,90,0.00,,,0.01,Wunderground v.1.15,2013-05-12 13:40:00,
2013-05-12 09:42:00,56.7,53.2,29.52,NW,306,0.0,0.0,88,0.00,,,0.01,Wunderground v.1.15,2013-05-12 13:42:00,
2013-05-12 09:43:00,56.7,52.9,29.52,NW,306,0.0,0.0,87,0.00,,,0.01,Wunderground v.1.15,2013-05-12 13:43:00,
2013-05-12 09:45:00,56.9,52.8,29.52,NW,306,0.0,0.0,86,0.00,,,0.01,Wunderground v.1.15,2013-05-12 13:45:00,
2013-05-12 09:46:00,56.9,52.4,29.52,NW,306,0.0,0.0,85,0.00,,,0.01,Wunderground v.1.15,2013-05-12 13:46:00,
2013-05-12 09:49:00,57.0,51.9,29.52,NW,306,0.0,0.0,83,0.00,,,0.01,Wunderground v.1.15,2013-05-12 13:49:00,
2013-05-12 09:52:00,57.1,52.0,29.52,NW,306,0.0,0.0,83,0.00,,,0.01,Wunderground v.1.15,2013-05-12 13:52:00,
2013-05-12 09:53:00,57.1,52.0,29.52,NW,306,0.0,0.0,83,0.00,,,0.01,Wunderground v.1.15,2013-05-12 13:53:00,
2013-05-12 09:55:00,57.1,52.0,29.52,NW,306,0.0,0.0,83,0.00,,,0.01,Wunderground v.1.15,2013-05-12 13:55:00,
2013-05-12 09:59:00,57.2,52.1,29.52,NW,306,0.0,0.0,83,0.00,,,0.01,Wunderground v.1.15,2013-05-12 13:59:00,
2013-05-12 10:00:00,57.4,52.3,29.52,NW,306,0.0,1.0,83,0.00,,,0.01,Wunderground v.1.15,2013-05-12 14:00:00,
2013-05-12 10:01:00,57.5,52.7,29.52,NW,306,0.0,1.0,84,0.00,,,0.01,Wunderground v.1.15,2013-05-12 14:01:00,
2013-05-12 10:04:00,57.6,52.1,29.52,NW,306,0.0,3.0,82,0.00,,,0.01,Wunderground v.1.15,2013-05-12 14:04:00,
2013-05-12 10:06:00,57.7,51.9,29.52,NW,306,0.0,3.0,81,0.00,,,0.01,Wunderground v.1.15,2013-05-12 14:06:00,
2013-05-12 10:09:00,57.9,52.4,29.52,WSW,252,0.0,3.0,82,0.00,,,0.01,Wunderground v.1.15,2013-05-12 14:09:00,
2013-05-12 10:10:00,57.9,52.1,29.52,SW,227,1.0,4.0,81,0.00,,,0.01,Wunderground v.1.15,2013-05-12 14:10:00,
2013-05-12 10:11:00,57.9,51.8,29.52,SW,225,1.0,4.0,80,0.00,,,0.02,Wunderground v.1.15,2013-05-12 14:11:00,
2013-05-12 10:13:00,57.8,51.3,29.52,SW,225,1.0,4.0,79,0.00,,,0.02,Wunderground v.1.15,2013-05-12 14:13:00,
2013-05-12 10:16:00,58.0,52.2,29.52,SW,225,1.0,4.0,81,0.00,,,0.02,Wunderground v.1.15,2013-05-12 14:16:00,
2013-05-12 10:17:00,58.0,52.2,29.52,SW,225,1.0,4.0,81,0.00,,,0.02,Wunderground v.1.15,2013-05-12 14:17:00,
2013-05-12 10:19:00,58.2,52.7,29.52,SW,222,2.0,4.0,82,0.00,,,0.02,Wunderground v.1.15,2013-05-12 14:19:00,
2013-05-12 10:20:00,58.1,53.0,29.52,South,188,2.0,4.0,83,0.00,,,0.02,Wunderground v.1.15,2013-05-12 14:20:00,
2013-05-12 10:22:00,58.1,53.0,29.52,South,188,2.0,4.0,83,0.00,,,0.02,Wunderground v.1.15,2013-05-12 14:22:00,
2013-05-12 10:23:00,58.0,52.9,29.52,South,188,2.0,4.0,83,0.00,,,0.02,Wunderground v.1.15,2013-05-12 14:23:00,
2013-05-12 10:24:00,58.0,52.5,29.51,South,188,2.0,4.0,82,0.00,,,0.02,Wunderground v.1.15,2013-05-12 14:24:00,
2013-05-12 10:25:00,58.0,52.9,29.51,South,188,2.0,4.0,83,0.00,,,0.02,Wunderground v.1.15,2013-05-12 14:25:00,
2013-05-12 10:28:00,58.1,53.0,29.51,South,188,3.0,4.0,83,0.00,,,0.02,Wunderground v.1.15,2013-05-12 14:28:00,
2013-05-12 10:31:00,58.3,53.2,29.51,South,183,2.0,2.0,83,0.00,,,0.02,Wunderground v.1.15,2013-05-12 14:31:00,
2013-05-12 10:32:00,58.3,52.8,29.51,South,183,2.0,2.0,82,0.00,,,0.02,Wunderground v.1.15,2013-05-12 14:32:00,
2013-05-12 10:37:00,58.5,52.4,29.51,SSE,168,2.0,5.0,80,0.00,,,0.02,Wunderground v.1.15,2013-05-12 14:37:00,
2013-05-12 10:40:00,58.8,52.6,29.51,SSE,168,2.0,2.0,80,0.00,,,0.02,Wunderground v.1.15,2013-05-12 14:40:00,
2013-05-12 10:42:00,58.8,52.0,29.51,SSE,168,2.0,2.0,78,0.00,,,0.02,Wunderground v.1.15,2013-05-12 14:42:00,
2013-05-12 10:44:00,59.0,52.5,29.51,SSE,168,1.0,2.0,79,0.00,,,0.02,Wunderground v.1.15,2013-05-12 14:44:00,
2013-05-12 10:46:00,59.1,52.2,29.51,SSE,168,1.0,2.0,78,0.00,,,0.02,Wunderground v.1.15,2013-05-12 14:46:00,
2013-05-12 10:48:00,59.2,52.0,29.51,SSE,168,1.0,2.0,77,0.00,,,0.02,Wunderground v.1.15,2013-05-12 14:48:00,
2013-05-12 10:49:00,59.3,52.1,29.51,SSE,168,0.0,2.0,77,0.00,,,0.02,Wunderground v.1.15,2013-05-12 14:49:00,
2013-05-12 10:50:00,59.3,51.7,29.51,SSE,168,0.0,1.0,76,0.00,,,0.02,Wunderground v.1.15,2013-05-12 14:50:00,
2013-05-12 10:54:00,59.9,53.4,29.50,SSE,168,1.0,5.0,79,0.00,,,0.02,Wunderground v.1.15,2013-05-12 14:54:00,
2013-05-12 10:56:00,60.3,54.1,29.50,SSE,167,1.0,7.0,80,0.00,,,0.02,Wunderground v.1.15,2013-05-12 14:56:00,
2013-05-12 10:57:00,60.4,53.9,29.50,SSE,155,1.0,7.0,79,0.00,,,0.02,Wunderground v.1.15,2013-05-12 14:57:00,
2013-05-12 10:58:00,60.4,53.2,29.50,SSE,150,2.0,7.0,77,0.00,,,0.02,Wunderground v.1.15,2013-05-12 14:58:00,
2013-05-12 11:02:00,60.7,53.4,29.50,SSE,150,4.0,6.0,77,0.00,,,0.02,Wunderground v.1.15,2013-05-12 15:02:00,
2013-05-12 11:04:00,60.8,53.5,29.50,SSE,150,4.0,6.0,77,0.00,,,0.02,Wunderground v.1.15,2013-05-12 15:04:00,
2013-05-12 11:05:00,60.9,53.3,29.50,SSE,150,4.0,6.0,76,0.00,,,0.02,Wunderground v.1.15,2013-05-12 15:05:00,
2013-05-12 11:07:00,61.1,53.5,29.50,SSE,155,4.0,6.0,76,0.00,,,0.02,Wunderground v.1.15,2013-05-12 15:07:00,
2013-05-12 11:10:00,61.4,54.1,29.50,SSE,155,4.0,8.0,77,0.00,,,0.02,Wunderground v.1.15,2013-05-12 15:10:00,
2013-05-12 11:11:00,61.5,53.5,29.50,SSE,154,4.0,8.0,75,0.00,,,0.02,Wunderground v.1.15,2013-05-12 15:11:00,
2013-05-12 11:13:00,61.6,52.9,29.50,SSE,166,4.0,8.0,73,0.00,,,0.02,Wunderground v.1.15,2013-05-12 15:13:00,
2013-05-12 11:18:00,62.0,53.2,29.50,South,180,4.0,8.0,73,0.00,,,0.02,Wunderground v.1.15,2013-05-12 15:18:00,
2013-05-12 11:19:00,62.1,52.6,29.50,West,269,4.0,8.0,71,0.00,,,0.02,Wunderground v.1.15,2013-05-12 15:19:00,
2013-05-12 11:21:00,62.0,51.7,29.50,West,265,3.0,6.0,69,0.00,,,0.02,Wunderground v.1.15,2013-05-12 15:21:00,
2013-05-12 11:24:00,62.1,52.6,29.50,SSE,166,1.0,6.0,71,0.00,,,0.02,Wunderground v.1.15,2013-05-12 15:24:00,
2013-05-12 11:25:00,62.1,52.2,29.50,SSE,166,1.0,6.0,70,0.00,,,0.02,Wunderground v.1.15,2013-05-12 15:25:00,
2013-05-12 11:27:00,62.2,53.4,29.50,SSE,166,1.0,6.0,73,0.00,,,0.02,Wunderground v.1.15,2013-05-12 15:27:00,
2013-05-12 11:28:00,62.3,53.5,29.50,SSE,166,1.0,6.0,73,0.00,,,0.02,Wunderground v.1.15,2013-05-12 15:28:00,
2013-05-12 11:31:00,62.8,54.8,29.49,SSE,166,0.0,6.0,75,0.00,,,0.02,Wunderground v.1.15,2013-05-12 15:31:00,
2013-05-12 11:32:00,62.9,54.1,29.49,SSE,166,0.0,6.0,73,0.00,,,0.02,Wunderground v.1.15,2013-05-12 15:32:00,
2013-05-12 11:34:00,63.2,54.0,29.49,ESE,103,0.0,6.0,72,0.00,,,0.02,Wunderground v.1.15,2013-05-12 15:34:00,
2013-05-12 11:35:00,63.3,54.1,29.49,ESE,103,0.0,6.0,72,0.00,,,0.02,Wunderground v.1.15,2013-05-12 15:35:00,
2013-05-12 11:38:00,63.8,54.2,29.49,East,98,0.0,6.0,71,0.00,,,0.02,Wunderground v.1.15,2013-05-12 15:38:00,
2013-05-12 11:40:00,64.1,54.5,29.49,NNE,17,1.0,1.0,71,0.00,,,0.02,Wunderground v.1.15,2013-05-12 15:40:00,
2013-05-12 11:42:00,64.2,53.8,29.49,ESE,114,1.0,6.0,69,0.00,,,0.02,Wunderground v.1.15,2013-05-12 15:42:00,
2013-05-12 11:46:00,64.1,52.1,29.49,WSW,252,2.0,7.0,65,0.00,,,0.02,Wunderground v.1.15,2013-05-12 15:46:00,
2013-05-12 11:47:00,64.0,52.0,29.49,WSW,246,2.0,7.0,65,0.00,,,0.02,Wunderground v.1.15,2013-05-12 15:47:00,
2013-05-12 11:49:00,63.9,51.9,29.49,WSW,246,2.0,7.0,65,0.00,,,0.02,Wunderground v.1.15,2013-05-12 15:49:00,
2013-05-12 11:52:00,64.2,54.2,29.49,NW,317,3.0,6.0,70,0.00,,,0.02,Wunderground v.1.15,2013-05-12 15:52:00,
2013-05-12 11:54:00,64.3,53.1,29.49,West,279,3.0,6.0,67,0.00,,,0.02,Wunderground v.1.15,2013-05-12 15:54:00,
2013-05-12 11:57:00,64.3,52.7,29.49,West,271,2.0,6.0,66,0.00,,,0.02,Wunderground v.1.15,2013-05-12 15:57:00,
2013-05-12 11:58:00,64.3,53.5,29.49,West,271,2.0,6.0,68,0.00,,,0.02,Wunderground v.1.15,2013-05-12 15:58:00,
2013-05-12 11:59:00,64.5,53.7,29.49,West,273,2.0,6.0,68,0.00,,,0.02,Wunderground v.1.15,2013-05-12 15:59:00,
2013-05-12 12:02:00,64.6,53.4,29.49,West,273,1.0,9.0,67,0.00,,,0.02,Wunderground v.1.15,2013-05-12 16:02:00,
2013-05-12 12:03:00,64.7,53.9,29.49,West,273,1.0,9.0,68,0.00,,,0.02,Wunderground v.1.15,2013-05-12 16:03:00,
2013-05-12 12:07:00,64.8,52.8,29.49,SSE,162,0.0,9.0,65,0.00,,,0.02,Wunderground v.1.15,2013-05-12 16:07:00,
2013-05-12 12:08:00,64.8,52.8,29.48,SSE,162,0.0,9.0,65,0.00,,,0.02,Wunderground v.1.15,2013-05-12 16:08:00,
2013-05-12 12:10:00,64.8,54.0,29.48,East,94,1.0,9.0,68,0.00,,,0.02,Wunderground v.1.15,2013-05-12 16:10:00,
2013-05-12 12:11:00,64.7,51.4,29.48,East,92,1.0,9.0,62,0.00,,,0.02,Wunderground v.1.15,2013-05-12 16:11:00,
2013-05-12 12:13:00,64.5,50.3,29.48,East,92,1.0,9.0,60,0.00,,,0.02,Wunderground v.1.15,2013-05-12 16:13:00,
2013-05-12 12:14:00,64.5,50.3,29.48,East,92,1.0,9.0,60,0.00,,,0.02,Wunderground v.1.15,2013-05-12 16:14:00,
2013-05-12 12:16:00,64.5,50.3,29.48,East,90,1.0,9.0,60,0.00,,,0.02,Wunderground v.1.15,2013-05-12 16:16:00,
2013-05-12 12:18:00,64.4,49.3,29.48,East,84,2.0,9.0,58,0.00,,,0.02,Wunderground v.1.15,2013-05-12 16:18:00,
2013-05-12 12:19:00,64.3,48.3,29.48,East,84,1.0,9.0,56,0.00,,,0.02,Wunderground v.1.15,2013-05-12 16:19:00,
2013-05-12 12:24:00,64.1,49.5,29.48,WNW,296,1.0,9.0,59,0.00,,,0.02,Wunderground v.1.15,2013-05-12 16:24:00,
2013-05-12 12:26:00,64.1,49.9,29.48,WNW,296,1.0,9.0,60,0.00,,,0.02,Wunderground v.1.15,2013-05-12 16:26:00,
2013-05-12 12:27:00,64.1,50.4,29.48,WNW,296,1.0,9.0,61,0.00,,,0.02,Wunderground v.1.15,2013-05-12 16:27:00,
2013-05-12 12:30:00,64.0,48.9,29.49,WSW,242,1.0,9.0,58,0.00,,,0.02,Wunderground v.1.15,2013-05-12 16:30:00,
2013-05-12 12:31:00,63.8,48.3,29.48,WSW,248,2.0,9.0,57,0.00,,,0.02,Wunderground v.1.15,2013-05-12 16:31:00,
2013-05-12 12:32:00,63.8,48.3,29.48,WNW,296,2.0,9.0,57,0.00,,,0.02,Wunderground v.1.15,2013-05-12 16:32:00,
2013-05-12 12:33:00,63.7,49.1,29.48,WSW,258,2.0,9.0,59,0.00,,,0.02,Wunderground v.1.15,2013-05-12 16:33:00,
2013-05-12 12:37:00,63.5,47.5,29.48,WNW,282,3.0,9.0,56,0.00,,,0.02,Wunderground v.1.15,2013-05-12 16:37:00,
2013-05-12 12:38:00,63.5,47.5,29.48,WNW,282,3.0,9.0,56,0.00,,,0.02,Wunderground v.1.15,2013-05-12 16:38:00,
2013-05-12 12:41:00,63.4,47.9,29.48,WNW,303,3.0,9.0,57,0.00,,,0.02,Wunderground v.1.15,2013-05-12 16:41:00,
2013-05-12 12:43:00,63.3,47.8,29.48,West,278,4.0,9.0,57,0.00,,,0.02,Wunderground v.1.15,2013-05-12 16:43:00,
2013-05-12 12:45:00,63.1,47.1,29.48,WNW,284,4.0,9.0,56,0.00,,,0.02,Wunderground v.1.15,2013-05-12 16:45:00,
2013-05-12 12:47:00,63.0,47.5,29.49,West,279,4.0,9.0,57,0.00,,,0.02,Wunderground v.1.15,2013-05-12 16:47:00,
2013-05-12 12:48:00,62.9,47.0,29.48,NW,317,5.0,9.0,56,0.00,,,0.02,Wunderground v.1.15,2013-05-12 16:48:00,
2013-05-12 12:50:00,62.8,47.3,29.49,WNW,294,5.0,5.0,57,0.00,,,0.02,Wunderground v.1.15,2013-05-12 16:50:00,
2013-05-12 12:52:00,62.8,47.3,29.49,West,267,5.0,9.0,57,0.00,,,0.02,Wunderground v.1.15,2013-05-12 16:52:00,
2013-05-12 12:55:00,62.7,47.2,29.49,WNW,296,5.0,9.0,57,0.00,,,0.02,Wunderground v.1.15,2013-05-12 16:55:00,
2013-05-12 12:57:00,62.7,47.7,29.49,WNW,296,4.0,9.0,58,0.00,,,0.02,Wunderground v.1.15,2013-05-12 16:57:00,
2013-05-12 13:00:00,62.9,47.4,29.49,WSW,246,3.0,12.0,57,0.00,,,0.02,Wunderground v.1.15,2013-05-12 17:00:00,
2013-05-12 13:01:00,62.9,47.4,29.49,WNW,284,3.0,12.0,57,0.00,,,0.02,Wunderground v.1.15,2013-05-12 17:01:00,
2013-05-12 13:03:00,63.1,48.5,29.49,WNW,286,2.0,12.0,59,0.00,,,0.02,Wunderground v.1.15,2013-05-12 17:03:00,
2013-05-12 13:06:00,63.6,48.1,29.49,West,267,2.0,12.0,57,0.00,,,0.02,Wunderground v.1.15,2013-05-12 17:06:00,
2013-05-12 13:07:00,63.8,48.7,29.49,NW,318,2.0,12.0,58,0.00,,,0.02,Wunderground v.1.15,2013-05-12 17:07:00,
2013-05-12 13:09:00,64.0,47.5,29.49,WNW,285,3.0,12.0,55,0.00,,,0.02,Wunderground v.1.15,2013-05-12 17:09:00,
2013-05-12 13:12:00,63.9,46.4,29.49,SSW,201,4.0,12.0,53,0.00,,,0.02,Wunderground v.1.15,2013-05-12 17:12:00,
2013-05-12 13:13:00,63.8,47.3,29.49,WNW,291,5.0,12.0,55,0.00,,,0.02,Wunderground v.1.15,2013-05-12 17:13:00,
2013-05-12 13:17:00,63.4,46.9,29.49,NW,325,7.0,14.0,55,0.00,,,0.02,Wunderground v.1.15,2013-05-12 17:17:00,
2013-05-12 13:19:00,63.3,47.8,29.49,West,271,7.0,14.0,57,0.00,,,0.02,Wunderground v.1.15,2013-05-12 17:19:00,
2013-05-12 13:20:00,63.2,47.7,29.49,WNW,291,7.0,7.0,57,0.00,,,0.02,Wunderground v.1.15,2013-05-12 17:20:00,
2013-05-12 13:22:00,63.2,47.7,29.49,NNW,329,5.0,12.0,57,0.00,,,0.02,Wunderground v.1.15,2013-05-12 17:22:00,
2013-05-12 13:25:00,63.2,47.2,29.50,WNW,282,4.0,12.0,56,0.00,,,0.02,Wunderground v.1.15,2013-05-12 17:25:00,
2013-05-12 13:26:00,63.1,46.7,29.50,WNW,296,4.0,12.0,55,0.00,,,0.02,Wunderground v.1.15,2013-05-12 17:26:00,
2013-05-12 13:29:00,62.9,47.4,29.50,WNW,291,4.0,12.0,57,0.00,,,0.02,Wunderground v.1.15,2013-05-12 17:29:00,
2013-05-12 13:30:00,62.8,47.8,29.50,WNW,291,4.0,4.0,58,0.00,,,0.02,Wunderground v.1.15,2013-05-12 17:30:00,
2013-05-12 13:31:00,62.8,48.3,29.50,NW,323,4.0,12.0,59,0.00,,,0.02,Wunderground v.1.15,2013-05-12 17:31:00,
2013-05-12 13:32:00,62.8,47.8,29.50,WNW,289,4.0,12.0,58,0.00,,,0.02,Wunderground v.1.15,2013-05-12 17:32:00,
2013-05-12 13:33:00,62.8,47.8,29.50,West,275,4.0,12.0,58,0.00,,,0.02,Wunderground v.1.15,2013-05-12 17:33:00,
2013-05-12 13:37:00,62.8,49.1,29.50,WNW,290,3.0,12.0,61,0.00,,,0.02,Wunderground v.1.15,2013-05-12 17:37:00,
2013-05-12 13:39:00,62.8,48.3,29.50,WNW,286,2.0,12.0,59,0.00,,,0.02,Wunderground v.1.15,2013-05-12 17:39:00,
2013-05-12 13:40:00,62.8,47.3,29.50,NW,311,3.0,12.0,57,0.00,,,0.02,Wunderground v.1.15,2013-05-12 17:40:00,
2013-05-12 13:41:00,62.7,47.7,29.50,WSW,256,3.0,12.0,58,0.00,,,0.02,Wunderground v.1.15,2013-05-12 17:41:00,
2013-05-12 13:43:00,62.5,47.5,29.50,West,259,4.0,12.0,58,0.00,,,0.02,Wunderground v.1.15,2013-05-12 17:43:00,
2013-05-12 13:44:00,62.4,47.4,29.50,West,263,4.0,12.0,58,0.00,,,0.02,Wunderground v.1.15,2013-05-12 17:44:00,
2013-05-12 13:48:00,62.3,47.8,29.50,West,277,5.0,12.0,59,0.00,,,0.02,Wunderground v.1.15,2013-05-12 17:48:00,
2013-05-12 13:49:00,62.3,47.3,29.50,NW,314,5.0,12.0,58,0.00,,,0.02,Wunderground v.1.15,2013-05-12 17:49:00,
2013-05-12 13:50:00,62.4,47.9,29.50,North,11,5.0,5.0,59,0.00,,,0.02,Wunderground v.1.15,2013-05-12 17:50:00,
2013-05-12 13:52:00,63.1,48.5,29.50,WNW,294,5.0,12.0,59,0.00,,,0.02,Wunderground v.1.15,2013-05-12 17:52:00,
2013-05-12 13:54:00,63.6,49.0,29.50,NNW,335,5.0,13.0,59,0.00,,,0.02,Wunderground v.1.15,2013-05-12 17:54:00,
2013-05-12 13:56:00,63.8,48.7,29.50,NW,317,5.0,13.0,58,0.00,,,0.03,Wunderground v.1.15,2013-05-12 17:56:00,
2013-05-12 13:57:00,64.1,49.0,29.50,WNW,298,6.0,13.0,58,0.00,,,0.03,Wunderground v.1.15,2013-05-12 17:57:00,
2013-05-12 14:00:00,64.7,49.1,29.49,NW,323,6.0,6.0,57,0.00,,,0.03,Wunderground v.1.15,2013-05-12 18:00:00,
2013-05-12 14:01:00,64.7,48.6,29.49,West,275,6.0,15.0,56,0.00,,,0.03,Wunderground v.1.15,2013-05-12 18:01:00,
2013-05-12 14:02:00,64.8,48.7,29.50,WNW,303,6.0,15.0,56,0.00,,,0.03,Wunderground v.1.15,2013-05-12 18:02:00,
2013-05-12 14:05:00,64.5,48.0,29.49,South,187,7.0,15.0,55,0.00,,,0.03,Wunderground v.1.15,2013-05-12 18:05:00,
2013-05-12 14:06:00,64.5,48.0,29.49,WNW,286,7.0,15.0,55,0.00,,,0.03,Wunderground v.1.15,2013-05-12 18:06:00,
2013-05-12 14:07:00,64.5,48.4,29.49,West,276,7.0,15.0,56,0.00,,,0.03,Wunderground v.1.15,2013-05-12 18:07:00,
2013-05-12 14:08:00,64.4,48.8,29.49,NW,319,8.0,15.0,57,0.00,,,0.03,Wunderground v.1.15,2013-05-12 18:08:00,
2013-05-12 14:12:00,64.4,49.3,29.49,NW,326,8.0,15.0,58,0.00,,,0.03,Wunderground v.1.15,2013-05-12 18:12:00,
2013-05-12 14:13:00,64.2,49.6,29.49,WNW,291,8.0,15.0,59,0.00,,,0.03,Wunderground v.1.15,2013-05-12 18:13:00,
2013-05-12 14:14:00,64.1,49.9,29.50,NNW,331,8.0,15.0,60,0.00,,,0.03,Wunderground v.1.15,2013-05-12 18:14:00,
2013-05-12 14:18:00,63.3,48.3,29.50,NW,306,9.0,15.0,58,0.00,,,0.03,Wunderground v.1.15,2013-05-12 18:18:00,
2013-05-12 14:23:00,62.0,48.0,29.50,North,355,10.0,15.0,60,0.00,,,0.03,Wunderground v.1.15,2013-05-12 18:23:00,
2013-05-12 14:24:00,61.9,47.4,29.50,WNW,299,10.0,15.0,59,0.00,,,0.03,Wunderground v.1.15,2013-05-12 18:24:00,
2013-05-12 14:25:00,61.8,47.3,29.50,NW,306,10.0,15.0,59,0.00,,,0.03,Wunderground v.1.15,2013-05-12 18:25:00,
2013-05-12 14:26:00,61.8,47.8,29.50,North,360,10.0,15.0,60,0.00,,,0.03,Wunderground v.1.15,2013-05-12 18:26:00,
2013-05-12 14:29:00,62.0,48.0,29.50,NW,305,8.0,15.0,60,0.00,,,0.03,Wunderground v.1.15,2013-05-12 18:29:00,
2013-05-12 14:30:00,62.1,48.5,29.50,NNW,330,8.0,15.0,61,0.00,,,0.03,Wunderground v.1.15,2013-05-12 18:30:00,
2013-05-12 14:33:00,62.1,46.7,29.51,NW,326,8.0,15.0,57,0.00,,,0.03,Wunderground v.1.15,2013-05-12 18:33:00,
2013-05-12 14:34:00,61.9,47.0,29.51,NW,325,7.0,15.0,58,0.00,,,0.03,Wunderground v.1.15,2013-05-12 18:34:00,
2013-05-12 14:36:00,61.4,46.0,29.51,NW,323,8.0,15.0,57,0.00,,,0.03,Wunderground v.1.15,2013-05-12 18:36:00,
2013-05-12 14:38:00,60.9,45.6,29.51,WNW,302,9.0,23.0,57,0.00,,,0.03,Wunderground v.1.15,2013-05-12 18:38:00,
2013-05-12 14:40:00,60.5,46.1,29.51,North,9,10.0,15.0,59,0.00,,,0.03,Wunderground v.1.15,2013-05-12 18:40:00,
2013-05-12 14:41:00,60.6,46.6,29.51,NW,322,10.0,15.0,60,0.00,,,0.03,Wunderground v.1.15,2013-05-12 18:41:00,
2013-05-12 14:42:00,60.7,46.3,29.52,North,360,10.0,17.0,59,0.00,,,0.03,Wunderground v.1.15,2013-05-12 18:42:00,
2013-05-12 14:44:00,60.6,46.2,29.52,North,350,10.0,17.0,59,0.00,,,0.03,Wunderground v.1.15,2013-05-12 18:44:00,
2013-05-12 14:46:00,60.5,45.6,29.52,NW,321,10.0,17.0,58,0.00,,,0.03,Wunderground v.1.15,2013-05-12 18:46:00,
2013-05-12 14:49:00,60.1,45.3,29.52,WNW,286,9.0,17.0,58,0.00,,,0.03,Wunderground v.1.15,2013-05-12 18:49:00,
2013-05-12 14:50:00,60.0,45.6,29.52,WNW,301,10.0,10.0,59,0.00,,,0.03,Wunderground v.1.15,2013-05-12 18:50:00,
2013-05-12 14:51:00,59.9,45.1,29.52,NW,306,10.0,15.0,58,0.00,,,0.03,Wunderground v.1.15,2013-05-12 18:51:00,
2013-05-12 14:54:00,59.5,45.2,29.52,NW,305,10.0,15.0,59,0.00,,,0.03,Wunderground v.1.15,2013-05-12 18:54:00,
2013-05-12 14:56:00,59.6,44.8,29.52,NW,307,9.0,15.0,58,0.00,,,0.03,Wunderground v.1.15,2013-05-12 18:56:00,
2013-05-12 14:57:00,59.6,44.8,29.52,NW,313,9.0,15.0,58,0.00,,,0.03,Wunderground v.1.15,2013-05-12 18:57:00,
2013-05-12 14:59:00,59.6,44.3,29.53,WNW,297,8.0,15.0,57,0.00,,,0.03,Wunderground v.1.15,2013-05-12 18:59:00,
2013-05-12 15:01:00,59.2,43.5,29.53,WNW,288,8.0,23.0,56,0.00,,,0.03,Wunderground v.1.15,2013-05-12 19:01:00,
2013-05-12 15:02:00,59.0,43.3,29.53,West,271,8.0,23.0,56,0.00,,,0.03,Wunderground v.1.15,2013-05-12 19:02:00,
2013-05-12 15:06:00,58.7,43.0,29.53,NNW,334,6.0,23.0,56,0.00,,,0.03,Wunderground v.1.15,2013-05-12 19:06:00,
2013-05-12 15:07:00,58.6,42.9,29.53,West,273,6.0,23.0,56,0.00,,,0.03,Wunderground v.1.15,2013-05-12 19:07:00,
2013-05-12 15:11:00,57.5,41.4,29.54,WNW,284,7.0,16.0,55,0.00,,,0.03,Wunderground v.1.15,2013-05-12 19:11:00,
2013-05-12 15:13:00,56.9,40.4,29.54,WSW,254,9.0,23.0,54,0.00,,,0.03,Wunderground v.1.15,2013-05-12 19:13:00,
2013-05-12 15:15:00,56.4,40.4,29.55,WNW,288,10.0,23.0,55,0.00,,,0.03,Wunderground v.1.15,2013-05-12 19:15:00,
2013-05-12 15:16:00,56.2,39.8,29.55,West,263,10.0,23.0,54,0.00,,,0.03,Wunderground v.1.15,2013-05-12 19:16:00,
2013-05-12 15:19:00,55.9,40.0,29.55,WNW,285,10.0,26.0,55,0.00,,,0.03,Wunderground v.1.15,2013-05-12 19:19:00,
2013-05-12 15:20:00,55.6,39.2,29.55,NW,321,10.0,23.0,54,0.00,,,0.03,Wunderground v.1.15,2013-05-12 19:20:00,
2013-05-12 15:21:00,55.4,39.5,29.55,WSW,252,11.0,23.0,55,0.00,,,0.03,Wunderground v.1.15,2013-05-12 19:21:00,
2013-05-12 15:22:00,55.3,39.4,29.55,WNW,300,10.0,23.0,55,0.00,,,0.03,Wunderground v.1.15,2013-05-12 19:22:00,
2013-05-12 15:25:00,54.7,38.4,29.55,West,271,10.0,23.0,54,0.00,,,0.03,Wunderground v.1.15,2013-05-12 19:25:00,
2013-05-12 15:28:00,54.1,37.3,29.56,WNW,296,10.0,23.0,53,0.00,,,0.03,Wunderground v.1.15,2013-05-12 19:28:00,
2013-05-12 15:30:00,53.9,37.1,29.55,WSW,249,10.0,10.0,53,0.00,,,0.03,Wunderground v.1.15,2013-05-12 19:30:00,
2013-05-12 15:31:00,53.8,37.5,29.56,WSW,237,9.0,23.0,54,0.00,,,0.03,Wunderground v.1.15,2013-05-12 19:31:00,
2013-05-12 15:32:00,53.8,38.0,29.56,NNW,340,9.0,23.0,55,0.00,,,0.03,Wunderground v.1.15,2013-05-12 19:32:00,
2013-05-12 15:33:00,53.8,38.0,29.56,West,271,8.0,23.0,55,0.00,,,0.03,Wunderground v.1.15,2013-05-12 19:33:00,
2013-05-12 15:38:00,53.7,37.9,29.56,NW,316,5.0,23.0,55,0.00,,,0.03,Wunderground v.1.15,2013-05-12 19:38:00,
2013-05-12 15:39:00,53.7,37.9,29.56,NW,315,4.0,23.0,55,0.00,,,0.03,Wunderground v.1.15,2013-05-12 19:39:00,
2013-05-12 15:40:00,53.7,37.9,29.56,NW,323,4.0,4.0,55,0.00,,,0.03,Wunderground v.1.15,2013-05-12 19:40:00,
2013-05-12 15:43:00,53.7,38.4,29.55,WNW,302,4.0,23.0,56,0.00,,,0.03,Wunderground v.1.15,2013-05-12 19:43:00,
2013-05-12 15:44:00,53.7,38.8,29.55,North,355,3.0,23.0,57,0.00,,,0.03,Wunderground v.1.15,2013-05-12 19:44:00,
2013-05-12 15:48:00,53.9,38.6,29.55,NNW,338,3.0,23.0,56,0.00,,,0.03,Wunderground v.1.15,2013-05-12 19:48:00,
2013-05-12 15:51:00,54.2,40.6,29.55,NNW,338,2.0,23.0,60,0.00,,,0.03,Wunderground v.1.15,2013-05-12 19:51:00,
2013-05-12 15:53:00,54.3,39.4,29.55,NNW,340,2.0,23.0,57,0.00,,,0.03,Wunderground v.1.15,2013-05-12 19:53:00,
2013-05-12 15:54:00,54.3,38.9,29.55,NNW,340,2.0,23.0,56,0.00,,,0.03,Wunderground v.1.15,2013-05-12 19:54:00,
2013-05-12 15:56:00,54.3,38.9,29.55,NNW,340,1.0,23.0,56,0.00,,,0.03,Wunderground v.1.15,2013-05-12 19:56:00,
2013-05-12 15:57:00,54.3,38.9,29.55,NNW,340,1.0,23.0,56,0.00,,,0.03,Wunderground v.1.15,2013-05-12 19:57:00,
2013-05-12 15:59:00,54.4,39.9,29.55,NNW,348,1.0,23.0,58,0.00,,,0.03,Wunderground v.1.15,2013-05-12 19:59:00,
2013-05-12 16:00:00,54.4,38.1,29.55,North,5,2.0,11.0,54,0.00,,,0.03,Wunderground v.1.15,2013-05-12 20:00:00,
2013-05-12 16:01:00,54.3,38.5,29.55,North,360,2.0,11.0,55,0.00,,,0.03,Wunderground v.1.15,2013-05-12 20:01:00,
2013-05-12 16:03:00,54.4,38.6,29.55,NNE,27,1.0,11.0,55,0.00,,,0.03,Wunderground v.1.15,2013-05-12 20:03:00,
2013-05-12 16:07:00,54.6,39.2,29.55,North,355,2.0,11.0,56,0.00,,,0.03,Wunderground v.1.15,2013-05-12 20:07:00,
2013-05-12 16:08:00,54.6,38.7,29.55,NNE,19,2.0,11.0,55,0.00,,,0.03,Wunderground v.1.15,2013-05-12 20:08:00,
2013-05-12 16:09:00,54.8,39.4,29.55,NNE,19,2.0,11.0,56,0.00,,,0.03,Wunderground v.1.15,2013-05-12 20:09:00,
2013-05-12 16:10:00,54.8,38.9,29.55,NNW,342,2.0,11.0,55,0.00,,,0.03,Wunderground v.1.15,2013-05-12 20:10:00,
2013-05-12 16:11:00,54.8,38.0,29.55,North,5,3.0,11.0,53,0.00,,,0.03,Wunderground v.1.15,2013-05-12 20:11:00,
2013-05-12 16:14:00,55.0,38.6,29.55,North,5,2.0,11.0,54,0.00,,,0.03,Wunderground v.1.15,2013-05-12 20:14:00,
2013-05-12 16:15:00,55.1,39.2,29.55,North,5,2.0,11.0,55,0.00,,,0.03,Wunderground v.1.15,2013-05-12 20:15:00,
2013-05-12 16:17:00,55.7,40.2,29.55,North,5,2.0,11.0,56,0.00,,,0.03,Wunderground v.1.15,2013-05-12 20:17:00,
2013-05-12 16:19:00,56.2,39.3,29.55,NNE,19,1.0,11.0,53,0.00,,,0.03,Wunderground v.1.15,2013-05-12 20:19:00,
2013-05-12 16:20:00,56.3,38.9,29.55,NNE,20,1.0,1.0,52,0.00,,,0.03,Wunderground v.1.15,2013-05-12 20:20:00,
2013-05-12 16:23:00,56.7,40.2,29.55,NNW,336,1.0,11.0,54,0.00,,,0.03,Wunderground v.1.15,2013-05-12 20:23:00,
2013-05-12 16:24:00,56.9,39.9,29.55,NNE,28,1.0,11.0,53,0.00,,,0.03,Wunderground v.1.15,2013-05-12 20:24:00,
2013-05-12 16:29:00,57.8,39.3,29.55,WSW,258,2.0,11.0,50,0.00,,,0.03,Wunderground v.1.15,2013-05-12 20:29:00,
2013-05-12 16:30:00,57.9,38.3,29.55,NW,315,3.0,11.0,48,0.00,,,0.03,Wunderground v.1.15,2013-05-12 20:30:00,
2013-05-12 16:31:00,57.9,37.2,29.55,NNW,327,3.0,11.0,46,0.00,,,0.03,Wunderground v.1.15,2013-05-12 20:31:00,
2013-05-12 16:35:00,57.8,38.8,29.55,NE,34,6.0,11.0,49,0.00,,,0.03,Wunderground v.1.15,2013-05-12 20:35:00,
2013-05-12 16:36:00,57.9,39.4,29.55,North,360,6.0,11.0,50,0.00,,,0.03,Wunderground v.1.15,2013-05-12 20:36:00,
2013-05-12 16:37:00,58.1,39.5,29.55,North,355,6.0,11.0,50,0.00,,,0.03,Wunderground v.1.15,2013-05-12 20:37:00,
2013-05-12 16:40:00,58.4,38.2,29.55,West,260,5.0,11.0,47,0.00,,,0.03,Wunderground v.1.15,2013-05-12 20:40:00,
2013-05-12 16:41:00,58.4,37.1,29.55,West,271,5.0,13.0,45,0.00,,,0.03,Wunderground v.1.15,2013-05-12 20:41:00,
2013-05-12 16:44:00,58.4,37.7,29.55,NW,326,5.0,13.0,46,0.00,,,0.03,Wunderground v.1.15,2013-05-12 20:44:00,
2013-05-12 16:45:00,58.6,38.4,29.55,WNW,290,5.0,13.0,47,0.00,,,0.03,Wunderground v.1.15,2013-05-12 20:45:00,
2013-05-12 16:46:00,58.6,37.3,29.55,WNW,290,5.0,13.0,45,0.00,,,0.03,Wunderground v.1.15,2013-05-12 20:46:00,
2013-05-12 16:47:00,58.5,36.6,29.55,WSW,258,6.0,13.0,44,0.00,,,0.03,Wunderground v.1.15,2013-05-12 20:47:00,
2013-05-12 16:50:00,58.3,37.6,29.55,WNW,300,6.0,6.0,46,0.00,,,0.03,Wunderground v.1.15,2013-05-12 20:50:00,
2013-05-12 16:52:00,58.5,37.2,29.55,SW,217,6.0,14.0,45,0.00,,,0.03,Wunderground v.1.15,2013-05-12 20:52:00,
2013-05-12 16:54:00,58.5,37.2,29.55,WNW,290,6.0,14.0,45,0.00,,,0.03,Wunderground v.1.15,2013-05-12 20:54:00,
2013-05-12 16:55:00,58.5,37.2,29.55,NNW,327,7.0,14.0,45,0.00,,,0.03,Wunderground v.1.15,2013-05-12 20:55:00,
2013-05-12 16:58:00,58.4,36.6,29.55,NW,316,7.0,14.0,44,0.00,,,0.03,Wunderground v.1.15,2013-05-12 20:58:00,
2013-05-12 16:59:00,58.3,36.5,29.55,NW,321,7.0,14.0,44,0.00,,,0.03,Wunderground v.1.15,2013-05-12 20:59:00,
2013-05-12 17:02:00,58.2,36.4,29.55,West,278,9.0,15.0,44,0.00,,,0.03,Wunderground v.1.15,2013-05-12 21:02:00,
2013-05-12 17:03:00,58.1,36.3,29.55,NNW,331,9.0,15.0,44,0.00,,,0.03,Wunderground v.1.15,2013-05-12 21:03:00,
2013-05-12 17:04:00,58.1,36.3,29.55,NW,309,9.0,15.0,44,0.00,,,0.03,Wunderground v.1.15,2013-05-12 21:04:00,
2013-05-12 17:06:00,58.1,36.3,29.55,WNW,290,8.0,15.0,44,0.00,,,0.03,Wunderground v.1.15,2013-05-12 21:06:00,
2013-05-12 17:09:00,58.2,35.8,29.55,West,269,8.0,15.0,43,0.00,,,0.03,Wunderground v.1.15,2013-05-12 21:09:00,
2013-05-12 17:11:00,58.4,36.6,29.56,WNW,286,8.0,11.0,44,0.00,,,0.03,Wunderground v.1.15,2013-05-12 21:11:00,
2013-05-12 17:15:00,58.4,36.6,29.56,West,263,7.0,15.0,44,0.00,,,0.03,Wunderground v.1.15,2013-05-12 21:15:00,
2013-05-12 17:17:00,58.4,35.4,29.56,WNW,298,7.0,15.0,42,0.00,,,0.03,Wunderground v.1.15,2013-05-12 21:17:00,
2013-05-12 17:18:00,58.4,36.6,29.56,WNW,302,7.0,15.0,44,0.00,,,0.03,Wunderground v.1.15,2013-05-12 21:18:00,
2013-05-12 17:21:00,58.4,34.8,29.56,North,355,8.0,15.0,41,0.00,,,0.03,Wunderground v.1.15,2013-05-12 21:21:00,
2013-05-12 17:24:00,58.4,35.4,29.56,North,350,9.0,15.0,42,0.00,,,0.03,Wunderground v.1.15,2013-05-12 21:24:00,
2013-05-12 17:25:00,58.5,35.5,29.56,NNW,346,9.0,15.0,42,0.00,,,0.03,Wunderground v.1.15,2013-05-12 21:25:00,
2013-05-12 17:31:00,58.5,34.2,29.56,NW,309,8.0,15.0,40,0.00,,,0.03,Wunderground v.1.15,2013-05-12 21:31:00,
2013-05-12 17:32:00,58.5,34.9,29.56,NNW,347,8.0,15.0,41,0.00,,,0.03,Wunderground v.1.15,2013-05-12 21:32:00,
2013-05-12 17:33:00,58.5,34.9,29.56,NW,309,7.0,15.0,41,0.00,,,0.03,Wunderground v.1.15,2013-05-12 21:33:00,
2013-05-12 17:35:00,58.5,34.2,29.56,NNW,337,7.0,15.0,40,0.00,,,0.03,Wunderground v.1.15,2013-05-12 21:35:00,
2013-05-12 17:39:00,58.4,34.2,29.56,West,265,7.0,15.0,40,0.00,,,0.03,Wunderground v.1.15,2013-05-12 21:39:00,
2013-05-12 17:40:00,58.3,33.4,29.56,NNW,334,7.0,7.0,39,0.00,,,0.03,Wunderground v.1.15,2013-05-12 21:40:00,
2013-05-12 17:42:00,58.4,34.2,29.57,NNW,335,8.0,15.0,40,0.00,,,0.03,Wunderground v.1.15,2013-05-12 21:42:00,
2013-05-12 17:43:00,58.4,33.5,29.56,WNW,298,8.0,15.0,39,0.00,,,0.03,Wunderground v.1.15,2013-05-12 21:43:00,
2013-05-12 17:46:00,58.2,33.3,29.57,NW,325,8.0,15.0,39,0.00,,,0.03,Wunderground v.1.15,2013-05-12 21:46:00,
2013-05-12 17:48:00,58.1,32.6,29.57,North,355,8.0,15.0,38,0.00,,,0.03,Wunderground v.1.15,2013-05-12 21:48:00,
2013-05-12 17:49:00,58.1,32.6,29.57,NW,323,8.0,20.0,38,0.00,,,0.03,Wunderground v.1.15,2013-05-12 21:49:00,
2013-05-12 17:50:00,58.0,32.5,29.57,NNE,15,9.0,9.0,38,0.00,,,0.03,Wunderground v.1.15,2013-05-12 21:50:00,
2013-05-12 17:55:00,57.8,32.3,29.57,NW,310,10.0,15.0,38,0.00,,,0.03,Wunderground v.1.15,2013-05-12 21:55:00,
2013-05-12 17:56:00,57.7,32.9,29.57,NNW,337,9.0,15.0,39,0.00,,,0.03,Wunderground v.1.15,2013-05-12 21:56:00,
2013-05-12 17:58:00,57.7,32.9,29.57,North,360,9.0,15.0,39,0.00,,,0.03,Wunderground v.1.15,2013-05-12 21:58:00,
2013-05-12 18:00:00,57.8,33.0,29.57,NW,306,8.0,8.0,39,0.00,,,0.03,Wunderground v.1.15,2013-05-12 22:00:00,
2013-05-12 18:03:00,57.8,32.3,29.58,WNW,287,6.0,21.0,38,0.00,,,0.03,Wunderground v.1.15,2013-05-12 22:03:00,
2013-05-12 18:04:00,57.7,32.2,29.58,WNW,302,6.0,21.0,38,0.00,,,0.03,Wunderground v.1.15,2013-05-12 22:04:00,
2013-05-12 18:05:00,57.7,32.2,29.58,WNW,286,6.0,21.0,38,0.00,,,0.03,Wunderground v.1.15,2013-05-12 22:05:00,
2013-05-12 18:10:00,57.5,31.4,29.58,WNW,293,7.0,7.0,37,0.00,,,0.03,Wunderground v.1.15,2013-05-12 22:10:00,
2013-05-12 18:11:00,57.4,31.3,29.58,West,273,7.0,21.0,37,0.00,,,0.03,Wunderground v.1.15,2013-05-12 22:11:00,
2013-05-12 18:12:00,57.4,31.3,29.58,West,279,8.0,21.0,37,0.00,,,0.03,Wunderground v.1.15,2013-05-12 22:12:00,
2013-05-12 18:13:00,57.3,31.2,29.58,NNW,338,8.0,21.0,37,0.00,,,0.03,Wunderground v.1.15,2013-05-12 22:13:00,
2013-05-12 18:16:00,57.3,31.9,29.58,NNW,343,8.0,21.0,38,0.00,,,0.03,Wunderground v.1.15,2013-05-12 22:16:00,
2013-05-12 18:18:00,57.2,31.1,29.58,NW,322,8.0,21.0,37,0.00,,,0.03,Wunderground v.1.15,2013-05-12 22:18:00,
2013-05-12 18:19:00,57.1,31.7,29.58,North,349,8.0,21.0,38,0.00,,,0.03,Wunderground v.1.15,2013-05-12 22:19:00,
2013-05-12 18:20:00,57.1,31.7,29.58,SSW,195,9.0,9.0,38,0.00,,,0.03,Wunderground v.1.15,2013-05-12 22:20:00,
2013-05-12 18:21:00,57.1,31.7,29.58,North,360,9.0,21.0,38,0.00,,,0.03,Wunderground v.1.15,2013-05-12 22:21:00,
2013-05-12 18:30:00,57.1,31.7,29.59,NNW,330,5.0,5.0,38,0.00,,,0.03,Wunderground v.1.15,2013-05-12 22:30:00,
2013-05-12 18:31:00,57.1,31.7,29.59,SW,222,4.0,7.0,38,0.00,,,0.03,Wunderground v.1.15,2013-05-12 22:31:00,
2013-05-12 18:32:00,57.1,31.7,29.59,WNW,286,4.0,21.0,38,0.00,,,0.03,Wunderground v.1.15,2013-05-12 22:32:00,
2013-05-12 18:33:00,57.0,31.0,29.59,NNW,347,4.0,21.0,37,0.00,,,0.03,Wunderground v.1.15,2013-05-12 22:33:00,
2013-05-12 18:36:00,56.9,30.9,29.59,WSW,254,5.0,21.0,37,0.00,,,0.03,Wunderground v.1.15,2013-05-12 22:36:00,
2013-05-12 18:37:00,56.9,30.9,29.59,NNW,341,5.0,21.0,37,0.00,,,0.03,Wunderground v.1.15,2013-05-12 22:37:00,
2013-05-12 18:39:00,56.8,30.8,29.59,West,273,6.0,21.0,37,0.00,,,0.03,Wunderground v.1.15,2013-05-12 22:39:00,
2013-05-12 18:43:00,56.7,31.4,29.59,North,5,6.0,21.0,38,0.00,,,0.03,Wunderground v.1.15,2013-05-12 22:43:00,
2013-05-12 18:45:00,56.8,30.1,29.59,NNW,327,6.0,21.0,36,0.00,,,0.03,Wunderground v.1.15,2013-05-12 22:45:00,
2013-05-12 18:46:00,56.7,30.7,29.59,NNW,329,6.0,21.0,37,0.00,,,0.03,Wunderground v.1.15,2013-05-12 22:46:00,
2013-05-12 18:51:00,56.7,30.7,29.59,WNW,295,5.0,21.0,37,0.00,,,0.03,Wunderground v.1.15,2013-05-12 22:51:00,
2013-05-12 18:52:00,56.6,30.6,29.60,NNW,330,5.0,21.0,37,0.00,,,0.03,Wunderground v.1.15,2013-05-12 22:52:00,
2013-05-12 18:53:00,56.6,30.6,29.60,NW,305,5.0,21.0,37,0.00,,,0.03,Wunderground v.1.15,2013-05-12 22:53:00,
2013-05-12 18:59:00,56.4,29.1,29.60,WNW,298,5.0,21.0,35,0.00,,,0.03,Wunderground v.1.15,2013-05-12 22:59:00,
2013-05-12 19:00:00,56.4,29.1,29.60,NNW,328,5.0,5.0,35,0.00,,,0.03,Wunderground v.1.15,2013-05-12 23:00:00,
2013-05-12 19:01:00,56.4,29.1,29.60,WNW,299,5.0,15.0,35,0.00,,,0.03,Wunderground v.1.15,2013-05-12 23:01:00,
2013-05-12 19:03:00,56.3,29.7,29.60,SW,232,5.0,15.0,36,0.00,,,0.03,Wunderground v.1.15,2013-05-12 23:03:00,
2013-05-12 19:06:00,56.2,28.9,29.60,West,269,5.0,15.0,35,0.00,,,0.03,Wunderground v.1.15,2013-05-12 23:06:00,
2013-05-12 19:07:00,56.1,28.8,29.60,West,276,5.0,15.0,35,0.00,,,0.03,Wunderground v.1.15,2013-05-12 23:07:00,
2013-05-12 19:09:00,56.0,29.4,29.60,NW,313,6.0,15.0,36,0.00,,,0.03,Wunderground v.1.15,2013-05-12 23:09:00,
2013-05-12 19:11:00,55.9,29.3,29.60,North,351,6.0,7.0,36,0.00,,,0.03,Wunderground v.1.15,2013-05-12 23:11:00,
2013-05-12 19:12:00,55.8,29.2,29.60,NW,306,6.0,15.0,36,0.00,,,0.03,Wunderground v.1.15,2013-05-12 23:12:00,
2013-05-12 19:15:00,55.7,29.8,29.60,NNW,334,5.0,15.0,37,0.00,,,0.03,Wunderground v.1.15,2013-05-12 23:15:00,
2013-05-12 19:16:00,55.7,29.8,29.60,NW,306,5.0,15.0,37,0.00,,,0.03,Wunderground v.1.15,2013-05-12 23:16:00,
2013-05-12 19:18:00,55.7,29.1,29.60,West,281,4.0,15.0,36,0.00,,,0.03,Wunderground v.1.15,2013-05-12 23:18:00,
2013-05-12 19:19:00,55.6,29.0,29.60,NNW,329,4.0,15.0,36,0.00,,,0.03,Wunderground v.1.15,2013-05-12 23:19:00,
2013-05-12 19:21:00,55.6,29.7,29.60,WNW,286,3.0,7.0,37,0.00,,,0.03,Wunderground v.1.15,2013-05-12 23:21:00,
2013-05-12 19:22:00,55.5,29.6,29.60,WNW,296,3.0,15.0,37,0.00,,,0.03,Wunderground v.1.15,2013-05-12 23:22:00,
2013-05-12 19:24:00,55.4,29.5,29.60,WNW,303,3.0,15.0,37,0.00,,,0.03,Wunderground v.1.15,2013-05-12 23:24:00,
2013-05-12 19:27:00,55.2,30.0,29.60,NW,317,3.0,15.0,38,0.00,,,0.03,Wunderground v.1.15,2013-05-12 23:27:00,
2013-05-12 19:28:00,55.2,30.0,29.60,NW,317,3.0,15.0,38,0.00,,,0.03,Wunderground v.1.15,2013-05-12 23:28:00,
2013-05-12 19:30:00,55.0,29.8,29.60,West,279,3.0,3.0,38,0.00,,,0.03,Wunderground v.1.15,2013-05-12 23:30:00,
2013-05-12 19:33:00,55.0,29.8,29.60,North,355,2.0,15.0,38,0.00,,,0.03,Wunderground v.1.15,2013-05-12 23:33:00,
2013-05-12 19:36:00,54.8,29.0,29.61,WNW,298,2.0,15.0,37,0.00,,,0.03,Wunderground v.1.15,2013-05-12 23:36:00,
2013-05-12 19:38:00,54.8,29.7,29.61,NW,313,2.0,15.0,38,0.00,,,0.03,Wunderground v.1.15,2013-05-12 23:38:00,
2013-05-12 19:41:00,54.7,29.6,29.61,NW,325,2.0,15.0,38,0.00,,,0.03,Wunderground v.1.15,2013-05-12 23:41:00,
2013-05-12 19:42:00,54.6,30.1,29.61,NW,326,2.0,15.0,39,0.00,,,0.03,Wunderground v.1.15,2013-05-12 23:42:00,
2013-05-12 19:45:00,54.5,30.6,29.61,NW,326,1.0,15.0,40,0.00,,,0.03,Wunderground v.1.15,2013-05-12 23:45:00,
2013-05-12 19:47:00,54.4,30.6,29.61,WSW,257,0.0,15.0,40,0.00,,,0.03,Wunderground v.1.15,2013-05-12 23:47:00,
2013-05-12 19:48:00,54.4,30.6,29.61,West,264,1.0,15.0,40,0.00,,,0.03,Wunderground v.1.15,2013-05-12 23:48:00,
2013-05-12 19:49:00,54.3,29.8,29.61,WNW,302,1.0,15.0,39,0.00,,,0.03,Wunderground v.1.15,2013-05-12 23:49:00,
2013-05-12 19:50:00,54.3,29.8,29.61,NW,321,1.0,15.0,39,0.00,,,0.03,Wunderground v.1.15,2013-05-12 23:50:00,
2013-05-12 19:53:00,54.2,29.8,29.61,NW,326,2.0,15.0,39,0.00,,,0.03,Wunderground v.1.15,2013-05-12 23:53:00,
2013-05-12 19:55:00,54.1,30.9,29.61,WNW,295,2.0,15.0,41,0.00,,,0.03,Wunderground v.1.15,2013-05-12 23:55:00,
2013-05-12 19:56:00,54.1,30.9,29.61,West,265,2.0,15.0,41,0.00,,,0.03,Wunderground v.1.15,2013-05-12 23:56:00,
2013-05-12 19:58:00,54.0,30.2,29.61,West,265,2.0,15.0,40,0.00,,,0.03,Wunderground v.1.15,2013-05-12 23:58:00,
2013-05-12 20:01:00,53.8,30.6,29.62,WNW,296,1.0,9.0,41,0.00,,,0.03,Wunderground v.1.15,2013-05-13 00:01:00,
2013-05-12 20:02:00,53.7,31.7,29.62,WNW,296,1.0,9.0,43,0.00,,,0.03,Wunderground v.1.15,2013-05-13 00:02:00,
2013-05-12 20:07:00,53.3,30.8,29.62,NW,319,1.0,9.0,42,0.00,,,0.03,Wunderground v.1.15,2013-05-13 00:07:00,
2013-05-12 20:08:00,53.2,30.7,29.62,NW,319,1.0,9.0,42,0.00,,,0.03,Wunderground v.1.15,2013-05-13 00:08:00,
2013-05-12 20:10:00,53.1,30.6,29.62,NW,309,1.0,9.0,42,0.00,,,0.03,Wunderground v.1.15,2013-05-13 00:10:00,
2013-05-12 20:12:00,53.0,29.9,29.62,NW,319,2.0,9.0,41,0.00,,,0.03,Wunderground v.1.15,2013-05-13 00:12:00,
2013-05-12 20:13:00,52.9,30.4,29.63,NW,323,2.0,9.0,42,0.00,,,0.03,Wunderground v.1.15,2013-05-13 00:13:00,
2013-05-12 20:16:00,52.8,30.9,29.63,WNW,303,2.0,9.0,43,0.00,,,0.03,Wunderground v.1.15,2013-05-13 00:16:00,
2013-05-12 20:17:00,52.7,30.2,29.63,North,355,3.0,9.0,42,0.00,,,0.03,Wunderground v.1.15,2013-05-13 00:17:00,
2013-05-12 20:20:00,52.6,30.7,29.63,WNW,298,3.0,3.0,43,0.00,,,0.03,Wunderground v.1.15,2013-05-13 00:20:00,
2013-05-12 20:21:00,52.6,30.7,29.63,NW,308,3.0,9.0,43,0.00,,,0.03,Wunderground v.1.15,2013-05-13 00:21:00,
2013-05-12 20:22:00,52.5,31.2,29.63,NW,310,2.0,9.0,44,0.00,,,0.03,Wunderground v.1.15,2013-05-13 00:22:00,
2013-05-12 20:25:00,52.4,31.1,29.63,NW,315,2.0,9.0,44,0.00,,,0.03,Wunderground v.1.15,2013-05-13 00:25:00,
2013-05-12 20:27:00,52.3,31.0,29.63,NW,315,1.0,9.0,44,0.00,,,0.03,Wunderground v.1.15,2013-05-13 00:27:00,
2013-05-12 20:28:00,52.3,31.0,29.63,NW,315,1.0,9.0,44,0.00,,,0.03,Wunderground v.1.15,2013-05-13 00:28:00,
2013-05-12 20:32:00,52.1,31.4,29.63,NNW,338,1.0,9.0,45,0.00,,,0.03,Wunderground v.1.15,2013-05-13 00:32:00,
2013-05-12 20:33:00,52.0,30.7,29.63,NNW,338,1.0,9.0,44,0.00,,,0.03,Wunderground v.1.15,2013-05-13 00:33:00,
2013-05-12 20:35:00,51.9,31.2,29.63,NNW,329,1.0,9.0,45,0.00,,,0.03,Wunderground v.1.15,2013-05-13 00:35:00,
2013-05-12 20:36:00,51.8,31.1,29.63,NNW,329,1.0,9.0,45,0.00,,,0.03,Wunderground v.1.15,2013-05-13 00:36:00,
2013-05-12 20:38:00,51.7,31.6,29.63,NNW,329,1.0,9.0,46,0.00,,,0.03,Wunderground v.1.15,2013-05-13 00:38:00,
2013-05-12 20:39:00,51.7,31.6,29.64,NNW,331,1.0,9.0,46,0.00,,,0.03,Wunderground v.1.15,2013-05-13 00:39:00,
2013-05-12 20:42:00,51.5,31.9,29.64,NNW,331,0.0,9.0,47,0.00,,,0.03,Wunderground v.1.15,2013-05-13 00:42:00,
2013-05-12 20:43:00,51.4,31.8,29.64,NNW,331,0.0,9.0,47,0.00,,,0.03,Wunderground v.1.15,2013-05-13 00:43:00,
2013-05-12 20:46:00,51.2,32.2,29.64,NNW,331,0.0,9.0,48,0.00,,,0.03,Wunderground v.1.15,2013-05-13 00:46:00,
2013-05-12 20:47:00,51.2,32.7,29.64,NNW,331,0.0,9.0,49,0.00,,,0.03,Wunderground v.1.15,2013-05-13 00:47:00,
2013-05-12 20:48:00,51.1,32.1,29.64,NNW,331,0.0,9.0,48,0.00,,,0.03,Wunderground v.1.15,2013-05-13 00:48:00,
2013-05-12 20:49:00,51.0,32.0,29.64,NNW,331,0.0,9.0,48,0.00,,,0.03,Wunderground v.1.15,2013-05-13 00:49:00,
2013-05-12 20:54:00,50.7,31.7,29.64,NNW,331,0.0,9.0,48,0.00,,,0.03,Wunderground v.1.15,2013-05-13 00:54:00,
2013-05-12 20:56:00,50.6,31.6,29.64,NNW,331,0.0,9.0,48,0.00,,,0.03,Wunderground v.1.15,2013-05-13 00:56:00,
2013-05-12 20:57:00,50.5,31.5,29.64,NNW,329,0.0,9.0,48,0.00,,,0.03,Wunderground v.1.15,2013-05-13 00:57:00,
2013-05-12 21:01:00,50.5,31.5,29.64,WNW,300,1.0,6.0,48,0.00,,,0.03,Wunderground v.1.15,2013-05-13 01:01:00,
2013-05-12 21:05:00,50.4,31.4,29.65,WNW,282,2.0,6.0,48,0.00,,,0.03,Wunderground v.1.15,2013-05-13 01:05:00,
2013-05-12 21:06:00,50.4,31.4,29.65,WNW,282,2.0,6.0,48,0.00,,,0.03,Wunderground v.1.15,2013-05-13 01:06:00,
2013-05-12 21:07:00,50.3,31.3,29.65,WNW,282,2.0,6.0,48,0.00,,,0.03,Wunderground v.1.15,2013-05-13 01:07:00,
2013-05-12 21:12:00,50.3,31.8,29.66,WSW,255,1.0,6.0,49,0.00,,,0.03,Wunderground v.1.15,2013-05-13 01:12:00,
2013-05-12 21:13:00,50.3,31.8,29.66,WSW,246,1.0,6.0,49,0.00,,,0.03,Wunderground v.1.15,2013-05-13 01:13:00,
2013-05-12 21:14:00,50.2,31.8,29.66,WSW,248,1.0,6.0,49,0.00,,,0.03,Wunderground v.1.15,2013-05-13 01:14:00,
2013-05-12 21:15:00,50.2,31.8,29.66,WNW,293,1.0,6.0,49,0.00,,,0.03,Wunderground v.1.15,2013-05-13 01:15:00,
2013-05-12 21:18:00,50.1,31.2,29.66,WNW,284,2.0,6.0,48,0.00,,,0.03,Wunderground v.1.15,2013-05-13 01:18:00,
2013-05-12 21:19:00,50.1,31.7,29.66,West,279,2.0,6.0,49,0.00,,,0.03,Wunderground v.1.15,2013-05-13 01:19:00,
2013-05-12 21:20:00,50.0,31.6,29.66,NW,309,2.0,2.0,49,0.00,,,0.03,Wunderground v.1.15,2013-05-13 01:20:00,
2013-05-12 21:24:00,49.9,31.5,29.66,West,277,3.0,7.0,49,0.00,,,0.03,Wunderground v.1.15,2013-05-13 01:24:00,
2013-05-12 21:26:00,49.9,32.0,29.66,WNW,288,3.0,9.0,50,0.00,,,0.03,Wunderground v.1.15,2013-05-13 01:26:00,
2013-05-12 21:27:00,49.8,31.4,29.66,NW,305,3.0,9.0,49,0.00,,,0.03,Wunderground v.1.15,2013-05-13 01:27:00,
2013-05-12 21:29:00,49.7,31.3,29.66,NNW,329,3.0,9.0,49,0.00,,,0.03,Wunderground v.1.15,2013-05-13 01:29:00,
2013-05-12 21:31:00,49.8,31.4,29.67,NNW,337,4.0,6.0,49,0.00,,,0.03,Wunderground v.1.15,2013-05-13 01:31:00,
2013-05-12 21:32:00,49.8,31.4,29.67,WNW,302,4.0,6.0,49,0.00,,,0.03,Wunderground v.1.15,2013-05-13 01:32:00,
2013-05-12 21:36:00,49.7,31.3,29.67,WNW,294,4.0,6.0,49,0.00,,,0.03,Wunderground v.1.15,2013-05-13 01:36:00,
2013-05-12 21:37:00,49.7,31.3,29.67,NW,317,4.0,6.0,49,0.00,,,0.03,Wunderground v.1.15,2013-05-13 01:37:00,
2013-05-12 21:38:00,49.8,31.4,29.67,NNW,341,4.0,6.0,49,0.00,,,0.03,Wunderground v.1.15,2013-05-13 01:38:00,
2013-05-12 21:41:00,49.8,31.4,29.67,NW,321,5.0,6.0,49,0.00,,,0.03,Wunderground v.1.15,2013-05-13 01:41:00,
2013-05-12 21:42:00,49.8,31.4,29.67,NW,314,5.0,6.0,49,0.00,,,0.03,Wunderground v.1.15,2013-05-13 01:42:00,
2013-05-12 21:43:00,49.9,31.5,29.68,WNW,303,5.0,6.0,49,0.00,,,0.03,Wunderground v.1.15,2013-05-13 01:43:00,
2013-05-12 21:45:00,49.8,31.4,29.68,WNW,296,5.0,6.0,49,0.00,,,0.03,Wunderground v.1.15,2013-05-13 01:45:00,
2013-05-12 21:47:00,49.8,31.4,29.68,WNW,288,5.0,10.0,49,0.00,,,0.03,Wunderground v.1.15,2013-05-13 01:47:00,
2013-05-12 21:48:00,49.8,31.4,29.68,WNW,298,5.0,10.0,49,0.00,,,0.03,Wunderground v.1.15,2013-05-13 01:48:00,
2013-05-12 21:50:00,49.7,31.8,29.68,NW,314,4.0,6.0,50,0.00,,,0.03,Wunderground v.1.15,2013-05-13 01:50:00,
2013-05-12 21:52:00,49.7,31.3,29.68,NW,312,3.0,6.0,49,0.00,,,0.03,Wunderground v.1.15,2013-05-13 01:52:00,
2013-05-12 21:53:00,49.7,31.8,29.68,NW,325,3.0,6.0,50,0.00,,,0.03,Wunderground v.1.15,2013-05-13 01:53:00,
2013-05-12 21:57:00,49.5,31.6,29.68,West,281,2.0,6.0,50,0.00,,,0.03,Wunderground v.1.15,2013-05-13 01:57:00,
2013-05-12 21:58:00,49.5,31.6,29.68,West,281,2.0,6.0,50,0.00,,,0.03,Wunderground v.1.15,2013-05-13 01:58:00,
2013-05-12 21:59:00,49.5,31.6,29.68,West,281,2.0,6.0,50,0.00,,,0.03,Wunderground v.1.15,2013-05-13 01:59:00,
2013-05-12 22:05:00,49.3,31.4,29.68,WSW,256,1.0,6.0,50,0.00,,,0.03,Wunderground v.1.15,2013-05-13 02:05:00,
2013-05-12 22:06:00,49.3,31.4,29.68,WSW,256,1.0,6.0,50,0.00,,,0.03,Wunderground v.1.15,2013-05-13 02:06:00,
2013-05-12 22:09:00,49.1,31.7,29.68,West,275,2.0,6.0,51,0.00,,,0.03,Wunderground v.1.15,2013-05-13 02:09:00,
2013-05-12 22:11:00,49.1,31.7,29.68,West,263,1.0,6.0,51,0.00,,,0.03,Wunderground v.1.15,2013-05-13 02:11:00,
2013-05-12 22:12:00,49.0,31.6,29.68,West,263,1.0,6.0,51,0.00,,,0.03,Wunderground v.1.15,2013-05-13 02:12:00,
2013-05-12 22:14:00,49.0,31.6,29.68,West,263,1.0,6.0,51,0.00,,,0.03,Wunderground v.1.15,2013-05-13 02:14:00,
2013-05-12 22:17:00,48.9,32.0,29.68,West,263,1.0,6.0,52,0.00,,,0.03,Wunderground v.1.15,2013-05-13 02:17:00,
2013-05-12 22:19:00,48.7,31.8,29.68,West,265,0.0,6.0,52,0.00,,,0.03,Wunderground v.1.15,2013-05-13 02:19:00,
2013-05-12 22:20:00,48.7,31.8,29.68,West,272,0.0,6.0,52,0.00,,,0.03,Wunderground v.1.15,2013-05-13 02:20:00,
2013-05-12 22:21:00,48.6,31.8,29.68,WNW,286,0.0,6.0,52,0.00,,,0.03,Wunderground v.1.15,2013-05-13 02:21:00,
2013-05-12 22:22:00,48.6,31.8,29.68,WNW,286,0.0,6.0,52,0.00,,,0.03,Wunderground v.1.15,2013-05-13 02:22:00,
2013-05-12 22:24:00,48.5,32.1,29.69,West,278,1.0,6.0,53,0.00,,,0.03,Wunderground v.1.15,2013-05-13 02:24:00,
2013-05-12 22:25:00,48.4,31.6,29.69,West,278,1.0,6.0,52,0.00,,,0.03,Wunderground v.1.15,2013-05-13 02:25:00,
2013-05-12 22:26:00,48.4,32.0,29.69,West,278,1.0,6.0,53,0.00,,,0.03,Wunderground v.1.15,2013-05-13 02:26:00,
2013-05-12 22:27:00,48.3,31.9,29.69,West,278,1.0,6.0,53,0.00,,,0.03,Wunderground v.1.15,2013-05-13 02:27:00,
2013-05-12 22:28:00,48.3,31.9,29.69,West,278,1.0,6.0,53,0.00,,,0.03,Wunderground v.1.15,2013-05-13 02:28:00,
2013-05-12 22:33:00,48.1,31.8,29.69,WSW,257,1.0,6.0,53,0.00,,,0.03,Wunderground v.1.15,2013-05-13 02:33:00,
2013-05-12 22:35:00,48.0,31.7,29.69,West,263,1.0,6.0,53,0.00,,,0.03,Wunderground v.1.15,2013-05-13 02:35:00,
2013-05-12 22:36:00,48.0,31.7,29.69,West,263,1.0,6.0,53,0.00,,,0.03,Wunderground v.1.15,2013-05-13 02:36:00,
2013-05-12 22:37:00,48.0,31.7,29.69,West,263,1.0,6.0,53,0.00,,,0.03,Wunderground v.1.15,2013-05-13 02:37:00,
2013-05-12 22:42:00,47.8,31.9,29.69,WSW,251,2.0,6.0,54,0.00,,,0.03,Wunderground v.1.15,2013-05-13 02:42:00,
2013-05-12 22:43:00,47.7,31.4,29.69,WSW,251,1.0,6.0,53,0.00,,,0.03,Wunderground v.1.15,2013-05-13 02:43:00,
2013-05-12 22:44:00,47.7,31.9,29.69,WSW,251,1.0,6.0,54,0.00,,,0.03,Wunderground v.1.15,2013-05-13 02:44:00,
2013-05-12 22:46:00,47.6,31.8,29.69,WSW,251,1.0,6.0,54,0.00,,,0.03,Wunderground v.1.15,2013-05-13 02:46:00,
2013-05-12 22:48:00,47.6,31.8,29.70,WSW,251,1.0,6.0,54,0.00,,,0.03,Wunderground v.1.15,2013-05-13 02:48:00,
2013-05-12 22:49:00,47.6,31.8,29.70,WSW,245,1.0,6.0,54,0.00,,,0.03,Wunderground v.1.15,2013-05-13 02:49:00,
2013-05-12 22:54:00,47.4,31.6,29.70,WNW,295,0.0,6.0,54,0.00,,,0.03,Wunderground v.1.15,2013-05-13 02:54:00,
2013-05-12 22:55:00,47.4,31.6,29.70,WNW,294,1.0,6.0,54,0.00,,,0.03,Wunderground v.1.15,2013-05-13 02:55:00,
2013-05-12 22:56:00,47.4,31.6,29.70,WNW,294,1.0,6.0,54,0.00,,,0.03,Wunderground v.1.15,2013-05-13 02:56:00,
2013-05-12 22:58:00,47.4,31.6,29.70,WNW,294,1.0,6.0,54,0.00,,,0.03,Wunderground v.1.15,2013-05-13 02:58:00,
2013-05-12 22:59:00,47.3,31.5,29.70,WNW,294,1.0,6.0,54,0.00,,,0.03,Wunderground v.1.15,2013-05-13 02:59:00,
2013-05-12 23:01:00,47.3,31.5,29.70,WNW,294,1.0,6.0,54,0.00,,,0.03,Wunderground v.1.15,2013-05-13 03:01:00,
2013-05-12 23:02:00,47.2,31.4,29.70,WNW,294,0.0,6.0,54,0.00,,,0.03,Wunderground v.1.15,2013-05-13 03:02:00,
2013-05-12 23:03:00,47.2,31.4,29.70,WNW,294,0.0,6.0,54,0.00,,,0.03,Wunderground v.1.15,2013-05-13 03:03:00,
2013-05-12 23:04:00,47.2,31.8,29.70,WNW,294,0.0,6.0,55,0.00,,,0.03,Wunderground v.1.15,2013-05-13 03:04:00,
2013-05-12 23:09:00,47.0,31.2,29.70,WNW,302,1.0,6.0,54,0.00,,,0.03,Wunderground v.1.15,2013-05-13 03:09:00,
2013-05-12 23:10:00,47.0,31.7,29.70,WNW,301,1.0,6.0,55,0.00,,,0.03,Wunderground v.1.15,2013-05-13 03:10:00,
2013-05-12 23:12:00,47.0,31.2,29.70,WNW,282,1.0,6.0,54,0.00,,,0.03,Wunderground v.1.15,2013-05-13 03:12:00,
2013-05-12 23:14:00,47.0,31.2,29.70,WNW,282,1.0,6.0,54,0.00,,,0.03,Wunderground v.1.15,2013-05-13 03:14:00,
2013-05-12 23:16:00,46.9,31.1,29.70,WNW,282,1.0,6.0,54,0.00,,,0.03,Wunderground v.1.15,2013-05-13 03:16:00,
2013-05-12 23:19:00,46.9,31.6,29.70,WNW,282,0.0,6.0,55,0.00,,,0.03,Wunderground v.1.15,2013-05-13 03:19:00,
2013-05-12 23:20:00,46.9,31.6,29.70,WNW,282,0.0,6.0,55,0.00,,,0.03,Wunderground v.1.15,2013-05-13 03:20:00,
2013-05-12 23:22:00,46.8,31.5,29.70,WNW,282,0.0,6.0,55,0.00,,,0.03,Wunderground v.1.15,2013-05-13 03:22:00,
2013-05-12 23:26:00,46.6,31.7,29.70,WNW,282,0.0,6.0,56,0.00,,,0.03,Wunderground v.1.15,2013-05-13 03:26:00,
2013-05-12 23:27:00,46.6,32.2,29.70,WNW,282,0.0,6.0,57,0.00,,,0.03,Wunderground v.1.15,2013-05-13 03:27:00,
2013-05-12 23:29:00,46.5,32.1,29.70,WNW,282,0.0,6.0,57,0.00,,,0.03,Wunderground v.1.15,2013-05-13 03:29:00,
2013-05-12 23:30:00,46.5,32.1,29.70,WNW,282,0.0,6.0,57,0.00,,,0.03,Wunderground v.1.15,2013-05-13 03:30:00,
2013-05-12 23:31:00,46.4,32.0,29.70,WNW,282,0.0,6.0,57,0.00,,,0.03,Wunderground v.1.15,2013-05-13 03:31:00,
2013-05-12 23:32:00,46.4,32.0,29.70,WNW,282,0.0,6.0,57,0.00,,,0.03,Wunderground v.1.15,2013-05-13 03:32:00,
2013-05-12 23:36:00,46.2,32.2,29.71,WNW,282,0.0,6.0,58,0.00,,,0.03,Wunderground v.1.15,2013-05-13 03:36:00,
2013-05-12 23:37:00,46.2,32.2,29.71,WNW,282,0.0,6.0,58,0.00,,,0.03,Wunderground v.1.15,2013-05-13 03:37:00,
2013-05-12 23:41:00,46.0,32.0,29.71,WNW,282,0.0,6.0,58,0.00,,,0.03,Wunderground v.1.15,2013-05-13 03:41:00,
2013-05-12 23:43:00,45.9,32.4,29.71,WNW,282,0.0,6.0,59,0.00,,,0.03,Wunderground v.1.15,2013-05-13 03:43:00,
2013-05-12 23:47:00,45.7,32.2,29.71,West,281,0.0,6.0,59,0.00,,,0.03,Wunderground v.1.15,2013-05-13 03:47:00,
2013-05-12 23:48:00,45.6,32.1,29.71,West,281,1.0,6.0,59,0.00,,,0.03,Wunderground v.1.15,2013-05-13 03:48:00,
2013-05-12 23:49:00,45.6,32.5,29.71,West,280,1.0,6.0,60,0.00,,,0.03,Wunderground v.1.15,2013-05-13 03:49:00,
2013-05-12 23:53:00,45.4,32.3,29.71,West,279,1.0,6.0,60,0.00,,,0.03,Wunderground v.1.15,2013-05-13 03:53:00,
2013-05-12 23:55:00,45.4,32.3,29.71,West,279,1.0,6.0,60,0.00,,,0.03,Wunderground v.1.15,2013-05-13 03:55:00,
2013-05-12 23:57:00,45.3,32.6,29.71,West,279,1.0,6.0,61,0.00,,,0.03,Wunderground v.1.15,2013-05-13 03:57:00,
2013-05-12 23:58:00,45.2,32.1,29.71,West,279,1.0,6.0,60,0.00,,,0.03,Wunderground v.1.15,2013-05-13 03:58:00,